<?xml version="1.0" encoding="utf-8"?>
<gpx xmlns:xsi="http://www.w3.org/2001/XMLSchema-instance" xmlns:xsd="http://www.w3.org/2001/XMLSchema" version="1.1" creator="Shapelink.com" xmlns="http://www.topografix.com/GPX/1/1" xmlns:gpxtpx="http://www.garmin.com/xmlschemas/TrackPointExtension/v1">
  <metadata>
    <name>Längdskidåkning - Skate 12.00 km, 2011-01-28</name>
    <desc></desc>
    <author><name>Alexander Engvall</name></author> 
    <time>2011-01-28T21:30:50Z</time>
  </metadata>
  <trk>
    <name>Längdskidåkning - Skate 12.00 km, 2011-01-28</name>
    <trkseg>
      <trkpt lat="59.5249464" lon="17.8766641">
        <ele>36.1868</ele>
        <time>2011-01-28T21:30:50Z</time>
      </trkpt>
      <trkpt lat="59.5250304" lon="17.8768455">
        <ele>37.1481</ele>
        <time>2011-01-28T21:30:55Z</time>
      </trkpt>
      <trkpt lat="59.5251143" lon="17.8770239">
        <ele>37.6287</ele>
        <time>2011-01-28T21:30:59Z</time>
      </trkpt>
      <trkpt lat="59.5251802" lon="17.8771199">
        <ele>37.6287</ele>
        <time>2011-01-28T21:31:01Z</time>
      </trkpt>
      <trkpt lat="59.5253852" lon="17.8773831">
        <ele>37.1481</ele>
        <time>2011-01-28T21:31:06Z</time>
      </trkpt>
      <trkpt lat="59.5255241" lon="17.8775084">
        <ele>36.1868</ele>
        <time>2011-01-28T21:31:09Z</time>
      </trkpt>
      <trkpt lat="59.5256027" lon="17.8776003">
        <ele>34.2642</ele>
        <time>2011-01-28T21:31:11Z</time>
      </trkpt>
      <trkpt lat="59.5256965" lon="17.8776973">
        <ele>34.7449</ele>
        <time>2011-01-28T21:31:13Z</time>
      </trkpt>
      <trkpt lat="59.5258349" lon="17.8778891">
        <ele>34.7449</ele>
        <time>2011-01-28T21:31:16Z</time>
      </trkpt>
      <trkpt lat="59.5260015" lon="17.8780075">
        <ele>33.7834</ele>
        <time>2011-01-28T21:31:19Z</time>
      </trkpt>
      <trkpt lat="59.5262947" lon="17.8779676">
        <ele>32.8223</ele>
        <time>2011-01-28T21:31:24Z</time>
      </trkpt>
      <trkpt lat="59.5264994" lon="17.8779969">
        <ele>31.8607</ele>
        <time>2011-01-28T21:31:28Z</time>
      </trkpt>
      <trkpt lat="59.526652" lon="17.8777758">
        <ele>30.4188</ele>
        <time>2011-01-28T21:31:32Z</time>
      </trkpt>
      <trkpt lat="59.5266813" lon="17.8773195">
        <ele>28.4962</ele>
        <time>2011-01-28T21:31:36Z</time>
      </trkpt>
      <trkpt lat="59.5266274" lon="17.8770485">
        <ele>28.9769</ele>
        <time>2011-01-28T21:31:39Z</time>
      </trkpt>
      <trkpt lat="59.5265042" lon="17.8770336">
        <ele>28.4962</ele>
        <time>2011-01-28T21:31:42Z</time>
      </trkpt>
      <trkpt lat="59.5263871" lon="17.8772118">
        <ele>28.0155</ele>
        <time>2011-01-28T21:31:45Z</time>
      </trkpt>
      <trkpt lat="59.5263281" lon="17.8773507">
        <ele>27.5349</ele>
        <time>2011-01-28T21:31:47Z</time>
      </trkpt>
      <trkpt lat="59.5262124" lon="17.8775924">
        <ele>26.5736</ele>
        <time>2011-01-28T21:31:51Z</time>
      </trkpt>
      <trkpt lat="59.5261249" lon="17.8777211">
        <ele>27.5349</ele>
        <time>2011-01-28T21:31:54Z</time>
      </trkpt>
      <trkpt lat="59.5259851" lon="17.8777904">
        <ele>29.4575</ele>
        <time>2011-01-28T21:31:59Z</time>
      </trkpt>
      <trkpt lat="59.5258399" lon="17.877752">
        <ele>29.9381</ele>
        <time>2011-01-28T21:32:03Z</time>
      </trkpt>
      <trkpt lat="59.5256783" lon="17.8776105">
        <ele>30.8995</ele>
        <time>2011-01-28T21:32:08Z</time>
      </trkpt>
      <trkpt lat="59.5255746" lon="17.8774644">
        <ele>30.4188</ele>
        <time>2011-01-28T21:32:12Z</time>
      </trkpt>
      <trkpt lat="59.5255069" lon="17.8772495">
        <ele>29.9381</ele>
        <time>2011-01-28T21:32:16Z</time>
      </trkpt>
      <trkpt lat="59.525509" lon="17.8771731">
        <ele>29.9381</ele>
        <time>2011-01-28T21:32:17Z</time>
      </trkpt>
      <trkpt lat="59.5256352" lon="17.8769368">
        <ele>29.9381</ele>
        <time>2011-01-28T21:32:21Z</time>
      </trkpt>
      <trkpt lat="59.5258041" lon="17.8769545">
        <ele>29.9381</ele>
        <time>2011-01-28T21:32:25Z</time>
      </trkpt>
      <trkpt lat="59.5258918" lon="17.8771864">
        <ele>28.9769</ele>
        <time>2011-01-28T21:32:28Z</time>
      </trkpt>
      <trkpt lat="59.5260266" lon="17.8773258">
        <ele>28.9769</ele>
        <time>2011-01-28T21:32:32Z</time>
      </trkpt>
      <trkpt lat="59.5260845" lon="17.8771039">
        <ele>28.9769</ele>
        <time>2011-01-28T21:32:35Z</time>
      </trkpt>
      <trkpt lat="59.5260129" lon="17.8768823">
        <ele>28.9769</ele>
        <time>2011-01-28T21:32:38Z</time>
      </trkpt>
      <trkpt lat="59.5258621" lon="17.8767353">
        <ele>28.4962</ele>
        <time>2011-01-28T21:32:42Z</time>
      </trkpt>
      <trkpt lat="59.5257073" lon="17.8767166">
        <ele>28.4962</ele>
        <time>2011-01-28T21:32:46Z</time>
      </trkpt>
      <trkpt lat="59.5255402" lon="17.8766425">
        <ele>28.4962</ele>
        <time>2011-01-28T21:32:51Z</time>
      </trkpt>
      <trkpt lat="59.5254454" lon="17.8765286">
        <ele>28.4962</ele>
        <time>2011-01-28T21:32:54Z</time>
      </trkpt>
      <trkpt lat="59.5253753" lon="17.8763741">
        <ele>28.0155</ele>
        <time>2011-01-28T21:32:57Z</time>
      </trkpt>
      <trkpt lat="59.5253924" lon="17.8761582">
        <ele>27.5349</ele>
        <time>2011-01-28T21:33:00Z</time>
      </trkpt>
      <trkpt lat="59.5255079" lon="17.876001">
        <ele>27.5349</ele>
        <time>2011-01-28T21:33:03Z</time>
      </trkpt>
      <trkpt lat="59.5256643" lon="17.8759933">
        <ele>26.5736</ele>
        <time>2011-01-28T21:33:06Z</time>
      </trkpt>
      <trkpt lat="59.5258431" lon="17.8761742">
        <ele>27.0543</ele>
        <time>2011-01-28T21:33:10Z</time>
      </trkpt>
      <trkpt lat="59.5259183" lon="17.8763041">
        <ele>25.6123</ele>
        <time>2011-01-28T21:33:12Z</time>
      </trkpt>
      <trkpt lat="59.5260291" lon="17.8765005">
        <ele>25.6123</ele>
        <time>2011-01-28T21:33:15Z</time>
      </trkpt>
      <trkpt lat="59.5262218" lon="17.8767148">
        <ele>23.6896</ele>
        <time>2011-01-28T21:33:20Z</time>
      </trkpt>
      <trkpt lat="59.5263557" lon="17.8766409">
        <ele>22.7283</ele>
        <time>2011-01-28T21:33:23Z</time>
      </trkpt>
      <trkpt lat="59.5263878" lon="17.8763821">
        <ele>22.7283</ele>
        <time>2011-01-28T21:33:26Z</time>
      </trkpt>
      <trkpt lat="59.5263" lon="17.8761859">
        <ele>23.6896</ele>
        <time>2011-01-28T21:33:29Z</time>
      </trkpt>
      <trkpt lat="59.5262355" lon="17.8760712">
        <ele>23.6896</ele>
        <time>2011-01-28T21:33:31Z</time>
      </trkpt>
      <trkpt lat="59.5261628" lon="17.875605">
        <ele>24.651</ele>
        <time>2011-01-28T21:33:37Z</time>
      </trkpt>
      <trkpt lat="59.5262445" lon="17.8754267">
        <ele>25.6123</ele>
        <time>2011-01-28T21:33:40Z</time>
      </trkpt>
      <trkpt lat="59.5264229" lon="17.8753707">
        <ele>26.0929</ele>
        <time>2011-01-28T21:33:44Z</time>
      </trkpt>
      <trkpt lat="59.5266137" lon="17.8754392">
        <ele>26.0929</ele>
        <time>2011-01-28T21:33:48Z</time>
      </trkpt>
      <trkpt lat="59.5268014" lon="17.8754662">
        <ele>26.0929</ele>
        <time>2011-01-28T21:33:52Z</time>
      </trkpt>
      <trkpt lat="59.5269646" lon="17.8755258">
        <ele>27.0543</ele>
        <time>2011-01-28T21:33:56Z</time>
      </trkpt>
      <trkpt lat="59.5271051" lon="17.8757148">
        <ele>26.5736</ele>
        <time>2011-01-28T21:34:00Z</time>
      </trkpt>
      <trkpt lat="59.5271091" lon="17.8759039">
        <ele>25.6123</ele>
        <time>2011-01-28T21:34:03Z</time>
      </trkpt>
      <trkpt lat="59.527069" lon="17.8760345">
        <ele>24.651</ele>
        <time>2011-01-28T21:34:05Z</time>
      </trkpt>
      <trkpt lat="59.5270516" lon="17.8762504">
        <ele>25.1317</ele>
        <time>2011-01-28T21:34:09Z</time>
      </trkpt>
      <trkpt lat="59.527219" lon="17.8764913">
        <ele>28.4962</ele>
        <time>2011-01-28T21:34:13Z</time>
      </trkpt>
      <trkpt lat="59.5273934" lon="17.8766011">
        <ele>30.8995</ele>
        <time>2011-01-28T21:34:16Z</time>
      </trkpt>
      <trkpt lat="59.5275079" lon="17.8765886">
        <ele>31.8607</ele>
        <time>2011-01-28T21:34:18Z</time>
      </trkpt>
      <trkpt lat="59.5276768" lon="17.87638">
        <ele>30.8995</ele>
        <time>2011-01-28T21:34:22Z</time>
      </trkpt>
      <trkpt lat="59.5277127" lon="17.8763239">
        <ele>30.4188</ele>
        <time>2011-01-28T21:34:23Z</time>
      </trkpt>
      <trkpt lat="59.5278825" lon="17.8760613">
        <ele>28.4962</ele>
        <time>2011-01-28T21:34:28Z</time>
      </trkpt>
      <trkpt lat="59.5280396" lon="17.8758777">
        <ele>27.5349</ele>
        <time>2011-01-28T21:34:32Z</time>
      </trkpt>
      <trkpt lat="59.5282143" lon="17.8756842">
        <ele>27.0543</ele>
        <time>2011-01-28T21:34:37Z</time>
      </trkpt>
      <trkpt lat="59.5282539" lon="17.8756535">
        <ele>27.0543</ele>
        <time>2011-01-28T21:34:38Z</time>
      </trkpt>
      <trkpt lat="59.5283757" lon="17.8757887">
        <ele>27.5349</ele>
        <time>2011-01-28T21:34:42Z</time>
      </trkpt>
      <trkpt lat="59.5283476" lon="17.8759555">
        <ele>26.5736</ele>
        <time>2011-01-28T21:34:45Z</time>
      </trkpt>
      <trkpt lat="59.5283107" lon="17.8759887">
        <ele>26.5736</ele>
        <time>2011-01-28T21:34:46Z</time>
      </trkpt>
      <trkpt lat="59.5281343" lon="17.8761857">
        <ele>25.1317</ele>
        <time>2011-01-28T21:34:51Z</time>
      </trkpt>
      <trkpt lat="59.5279812" lon="17.8763866">
        <ele>24.651</ele>
        <time>2011-01-28T21:34:55Z</time>
      </trkpt>
      <trkpt lat="59.5279414" lon="17.8764385">
        <ele>24.1703</ele>
        <time>2011-01-28T21:34:56Z</time>
      </trkpt>
      <trkpt lat="59.5277727" lon="17.8766296">
        <ele>26.0929</ele>
        <time>2011-01-28T21:35:00Z</time>
      </trkpt>
      <trkpt lat="59.5276831" lon="17.8769938">
        <ele>25.6123</ele>
        <time>2011-01-28T21:35:05Z</time>
      </trkpt>
      <trkpt lat="59.5277493" lon="17.8771662">
        <ele>25.1317</ele>
        <time>2011-01-28T21:35:08Z</time>
      </trkpt>
      <trkpt lat="59.5278385" lon="17.8771774">
        <ele>25.1317</ele>
        <time>2011-01-28T21:35:10Z</time>
      </trkpt>
      <trkpt lat="59.5280054" lon="17.8770147">
        <ele>25.1317</ele>
        <time>2011-01-28T21:35:14Z</time>
      </trkpt>
      <trkpt lat="59.5281585" lon="17.8768257">
        <ele>25.1317</ele>
        <time>2011-01-28T21:35:18Z</time>
      </trkpt>
      <trkpt lat="59.5282933" lon="17.8767513">
        <ele>25.1317</ele>
        <time>2011-01-28T21:35:21Z</time>
      </trkpt>
      <trkpt lat="59.5285151" lon="17.8766798">
        <ele>25.1317</ele>
        <time>2011-01-28T21:35:26Z</time>
      </trkpt>
      <trkpt lat="59.5287533" lon="17.87659">
        <ele>26.0929</ele>
        <time>2011-01-28T21:35:31Z</time>
      </trkpt>
      <trkpt lat="59.5287979" lon="17.8765725">
        <ele>26.0929</ele>
        <time>2011-01-28T21:35:32Z</time>
      </trkpt>
      <trkpt lat="59.5289419" lon="17.8765259">
        <ele>26.5736</ele>
        <time>2011-01-28T21:35:35Z</time>
      </trkpt>
      <trkpt lat="59.5291967" lon="17.8764232">
        <ele>26.5736</ele>
        <time>2011-01-28T21:35:40Z</time>
      </trkpt>
      <trkpt lat="59.5292899" lon="17.8763757">
        <ele>27.0543</ele>
        <time>2011-01-28T21:35:42Z</time>
      </trkpt>
      <trkpt lat="59.5294489" lon="17.8762947">
        <ele>27.5349</ele>
        <time>2011-01-28T21:35:46Z</time>
      </trkpt>
      <trkpt lat="59.5295759" lon="17.8762886">
        <ele>27.0543</ele>
        <time>2011-01-28T21:35:49Z</time>
      </trkpt>
      <trkpt lat="59.5297411" lon="17.876365">
        <ele>26.0929</ele>
        <time>2011-01-28T21:35:53Z</time>
      </trkpt>
      <trkpt lat="59.5299893" lon="17.8764508">
        <ele>27.0543</ele>
        <time>2011-01-28T21:35:59Z</time>
      </trkpt>
      <trkpt lat="59.5302284" lon="17.8765294">
        <ele>27.0543</ele>
        <time>2011-01-28T21:36:04Z</time>
      </trkpt>
      <trkpt lat="59.5304358" lon="17.8766269">
        <ele>26.0929</ele>
        <time>2011-01-28T21:36:09Z</time>
      </trkpt>
      <trkpt lat="59.5305469" lon="17.8766725">
        <ele>25.1317</ele>
        <time>2011-01-28T21:36:12Z</time>
      </trkpt>
      <trkpt lat="59.5306879" lon="17.8767532">
        <ele>25.1317</ele>
        <time>2011-01-28T21:36:16Z</time>
      </trkpt>
      <trkpt lat="59.5308318" lon="17.8767988">
        <ele>27.0543</ele>
        <time>2011-01-28T21:36:21Z</time>
      </trkpt>
      <trkpt lat="59.5310437" lon="17.8768164">
        <ele>28.4962</ele>
        <time>2011-01-28T21:36:26Z</time>
      </trkpt>
      <trkpt lat="59.5312128" lon="17.8768792">
        <ele>28.4962</ele>
        <time>2011-01-28T21:36:30Z</time>
      </trkpt>
      <trkpt lat="59.5314158" lon="17.8769476">
        <ele>29.9381</ele>
        <time>2011-01-28T21:36:35Z</time>
      </trkpt>
      <trkpt lat="59.5314556" lon="17.8769641">
        <ele>29.9381</ele>
        <time>2011-01-28T21:36:36Z</time>
      </trkpt>
      <trkpt lat="59.5316154" lon="17.8769253">
        <ele>29.4575</ele>
        <time>2011-01-28T21:36:40Z</time>
      </trkpt>
      <trkpt lat="59.5317417" lon="17.8769315">
        <ele>29.4575</ele>
        <time>2011-01-28T21:36:43Z</time>
      </trkpt>
      <trkpt lat="59.5318249" lon="17.8771012">
        <ele>29.4575</ele>
        <time>2011-01-28T21:36:46Z</time>
      </trkpt>
      <trkpt lat="59.5318453" lon="17.8771564">
        <ele>29.9381</ele>
        <time>2011-01-28T21:36:47Z</time>
      </trkpt>
      <trkpt lat="59.5319711" lon="17.8773408">
        <ele>30.8995</ele>
        <time>2011-01-28T21:36:52Z</time>
      </trkpt>
      <trkpt lat="59.5321171" lon="17.8773719">
        <ele>30.4188</ele>
        <time>2011-01-28T21:36:56Z</time>
      </trkpt>
      <trkpt lat="59.532331" lon="17.8772978">
        <ele>28.4962</ele>
        <time>2011-01-28T21:37:01Z</time>
      </trkpt>
      <trkpt lat="59.5325483" lon="17.8772898">
        <ele>27.5349</ele>
        <time>2011-01-28T21:37:05Z</time>
      </trkpt>
      <trkpt lat="59.5327044" lon="17.8772709">
        <ele>27.5349</ele>
        <time>2011-01-28T21:37:08Z</time>
      </trkpt>
      <trkpt lat="59.5328829" lon="17.8772382">
        <ele>27.0543</ele>
        <time>2011-01-28T21:37:12Z</time>
      </trkpt>
      <trkpt lat="59.5330827" lon="17.8770761">
        <ele>29.4575</ele>
        <time>2011-01-28T21:37:17Z</time>
      </trkpt>
      <trkpt lat="59.5331263" lon="17.8768243">
        <ele>29.9381</ele>
        <time>2011-01-28T21:37:20Z</time>
      </trkpt>
      <trkpt lat="59.5331132" lon="17.8763618">
        <ele>28.0155</ele>
        <time>2011-01-28T21:37:25Z</time>
      </trkpt>
      <trkpt lat="59.5332091" lon="17.8760857">
        <ele>27.0543</ele>
        <time>2011-01-28T21:37:29Z</time>
      </trkpt>
      <trkpt lat="59.533348" lon="17.8761634">
        <ele>26.0929</ele>
        <time>2011-01-28T21:37:32Z</time>
      </trkpt>
      <trkpt lat="59.5333958" lon="17.8761934">
        <ele>26.0929</ele>
        <time>2011-01-28T21:37:33Z</time>
      </trkpt>
      <trkpt lat="59.5335313" lon="17.876254">
        <ele>25.1317</ele>
        <time>2011-01-28T21:37:36Z</time>
      </trkpt>
      <trkpt lat="59.5336911" lon="17.8763167">
        <ele>24.651</ele>
        <time>2011-01-28T21:37:40Z</time>
      </trkpt>
      <trkpt lat="59.5337236" lon="17.8763362">
        <ele>24.651</ele>
        <time>2011-01-28T21:37:41Z</time>
      </trkpt>
      <trkpt lat="59.5337607" lon="17.8763616">
        <ele>25.1317</ele>
        <time>2011-01-28T21:37:42Z</time>
      </trkpt>
      <trkpt lat="59.5337962" lon="17.8763875">
        <ele>24.651</ele>
        <time>2011-01-28T21:37:43Z</time>
      </trkpt>
      <trkpt lat="59.5340274" lon="17.8764544">
        <ele>24.1703</ele>
        <time>2011-01-28T21:37:49Z</time>
      </trkpt>
      <trkpt lat="59.53411" lon="17.8764016">
        <ele>23.6896</ele>
        <time>2011-01-28T21:37:51Z</time>
      </trkpt>
      <trkpt lat="59.5342587" lon="17.8761991">
        <ele>23.209</ele>
        <time>2011-01-28T21:37:55Z</time>
      </trkpt>
      <trkpt lat="59.5343457" lon="17.8759913">
        <ele>22.7283</ele>
        <time>2011-01-28T21:37:58Z</time>
      </trkpt>
      <trkpt lat="59.5345135" lon="17.8758809">
        <ele>22.7283</ele>
        <time>2011-01-28T21:38:02Z</time>
      </trkpt>
      <trkpt lat="59.5347592" lon="17.8759007">
        <ele>23.6896</ele>
        <time>2011-01-28T21:38:08Z</time>
      </trkpt>
      <trkpt lat="59.5348284" lon="17.8756866">
        <ele>22.7283</ele>
        <time>2011-01-28T21:38:11Z</time>
      </trkpt>
      <trkpt lat="59.534797" lon="17.8754174">
        <ele>21.767</ele>
        <time>2011-01-28T21:38:14Z</time>
      </trkpt>
      <trkpt lat="59.534681" lon="17.8752915">
        <ele>21.2864</ele>
        <time>2011-01-28T21:38:17Z</time>
      </trkpt>
      <trkpt lat="59.5345016" lon="17.8752347">
        <ele>21.767</ele>
        <time>2011-01-28T21:38:21Z</time>
      </trkpt>
      <trkpt lat="59.5343493" lon="17.8751818">
        <ele>22.2476</ele>
        <time>2011-01-28T21:38:25Z</time>
      </trkpt>
      <trkpt lat="59.5341944" lon="17.8751278">
        <ele>21.767</ele>
        <time>2011-01-28T21:38:29Z</time>
      </trkpt>
      <trkpt lat="59.5340868" lon="17.8750693">
        <ele>21.767</ele>
        <time>2011-01-28T21:38:32Z</time>
      </trkpt>
      <trkpt lat="59.5339808" lon="17.8747306">
        <ele>20.325</ele>
        <time>2011-01-28T21:38:38Z</time>
      </trkpt>
      <trkpt lat="59.5339914" lon="17.8745932">
        <ele>21.2864</ele>
        <time>2011-01-28T21:38:40Z</time>
      </trkpt>
      <trkpt lat="59.533998" lon="17.8743042">
        <ele>22.2476</ele>
        <time>2011-01-28T21:38:45Z</time>
      </trkpt>
      <trkpt lat="59.5339835" lon="17.8740639">
        <ele>23.209</ele>
        <time>2011-01-28T21:38:49Z</time>
      </trkpt>
      <trkpt lat="59.5339563" lon="17.8738052">
        <ele>23.209</ele>
        <time>2011-01-28T21:38:53Z</time>
      </trkpt>
      <trkpt lat="59.533907" lon="17.8735572">
        <ele>22.2476</ele>
        <time>2011-01-28T21:38:57Z</time>
      </trkpt>
      <trkpt lat="59.5338399" lon="17.8733367">
        <ele>23.209</ele>
        <time>2011-01-28T21:39:01Z</time>
      </trkpt>
      <trkpt lat="59.5337368" lon="17.8732063">
        <ele>23.6896</ele>
        <time>2011-01-28T21:39:05Z</time>
      </trkpt>
      <trkpt lat="59.5336474" lon="17.8730458">
        <ele>24.651</ele>
        <time>2011-01-28T21:39:09Z</time>
      </trkpt>
      <trkpt lat="59.5335701" lon="17.8728179">
        <ele>25.6123</ele>
        <time>2011-01-28T21:39:13Z</time>
      </trkpt>
      <trkpt lat="59.533479" lon="17.8726051">
        <ele>25.6123</ele>
        <time>2011-01-28T21:39:17Z</time>
      </trkpt>
      <trkpt lat="59.5333898" lon="17.8723854">
        <ele>25.6123</ele>
        <time>2011-01-28T21:39:21Z</time>
      </trkpt>
      <trkpt lat="59.5333077" lon="17.872171">
        <ele>25.1317</ele>
        <time>2011-01-28T21:39:25Z</time>
      </trkpt>
      <trkpt lat="59.5332569" lon="17.8719607">
        <ele>24.651</ele>
        <time>2011-01-28T21:39:29Z</time>
      </trkpt>
      <trkpt lat="59.53321" lon="17.8717162">
        <ele>24.1703</ele>
        <time>2011-01-28T21:39:33Z</time>
      </trkpt>
      <trkpt lat="59.5331924" lon="17.8714633">
        <ele>23.6896</ele>
        <time>2011-01-28T21:39:37Z</time>
      </trkpt>
      <trkpt lat="59.5331813" lon="17.8712633">
        <ele>23.209</ele>
        <time>2011-01-28T21:39:40Z</time>
      </trkpt>
      <trkpt lat="59.5331776" lon="17.8709956">
        <ele>24.1703</ele>
        <time>2011-01-28T21:39:44Z</time>
      </trkpt>
      <trkpt lat="59.533244" lon="17.8707495">
        <ele>25.1317</ele>
        <time>2011-01-28T21:39:48Z</time>
      </trkpt>
      <trkpt lat="59.53332" lon="17.8704194">
        <ele>25.6123</ele>
        <time>2011-01-28T21:39:53Z</time>
      </trkpt>
      <trkpt lat="59.5332862" lon="17.8702218">
        <ele>25.1317</ele>
        <time>2011-01-28T21:39:56Z</time>
      </trkpt>
      <trkpt lat="59.5331867" lon="17.8700037">
        <ele>24.1703</ele>
        <time>2011-01-28T21:40:00Z</time>
      </trkpt>
      <trkpt lat="59.5330667" lon="17.8697264">
        <ele>23.6896</ele>
        <time>2011-01-28T21:40:05Z</time>
      </trkpt>
      <trkpt lat="59.532959" lon="17.8695295">
        <ele>23.6896</ele>
        <time>2011-01-28T21:40:09Z</time>
      </trkpt>
      <trkpt lat="59.53293" lon="17.8694675">
        <ele>23.6896</ele>
        <time>2011-01-28T21:40:10Z</time>
      </trkpt>
      <trkpt lat="59.5328112" lon="17.8692356">
        <ele>24.1703</ele>
        <time>2011-01-28T21:40:14Z</time>
      </trkpt>
      <trkpt lat="59.5327312" lon="17.8690676">
        <ele>23.209</ele>
        <time>2011-01-28T21:40:17Z</time>
      </trkpt>
      <trkpt lat="59.5325741" lon="17.8687794">
        <ele>22.2476</ele>
        <time>2011-01-28T21:40:22Z</time>
      </trkpt>
      <trkpt lat="59.5325472" lon="17.8687241">
        <ele>22.2476</ele>
        <time>2011-01-28T21:40:23Z</time>
      </trkpt>
      <trkpt lat="59.5324085" lon="17.8684745">
        <ele>21.767</ele>
        <time>2011-01-28T21:40:28Z</time>
      </trkpt>
      <trkpt lat="59.5322914" lon="17.8681487">
        <ele>20.8057</ele>
        <time>2011-01-28T21:40:33Z</time>
      </trkpt>
      <trkpt lat="59.5321939" lon="17.8678866">
        <ele>20.8057</ele>
        <time>2011-01-28T21:40:37Z</time>
      </trkpt>
      <trkpt lat="59.5321742" lon="17.8678234">
        <ele>20.325</ele>
        <time>2011-01-28T21:40:38Z</time>
      </trkpt>
      <trkpt lat="59.5320965" lon="17.8675792">
        <ele>21.767</ele>
        <time>2011-01-28T21:40:42Z</time>
      </trkpt>
      <trkpt lat="59.5319868" lon="17.867291">
        <ele>21.767</ele>
        <time>2011-01-28T21:40:47Z</time>
      </trkpt>
      <trkpt lat="59.5319503" lon="17.8670898">
        <ele>21.767</ele>
        <time>2011-01-28T21:40:50Z</time>
      </trkpt>
      <trkpt lat="59.5319347" lon="17.8668992">
        <ele>21.767</ele>
        <time>2011-01-28T21:40:53Z</time>
      </trkpt>
      <trkpt lat="59.5319131" lon="17.8666951">
        <ele>21.767</ele>
        <time>2011-01-28T21:40:56Z</time>
      </trkpt>
      <trkpt lat="59.5318726" lon="17.8664009">
        <ele>22.7283</ele>
        <time>2011-01-28T21:41:00Z</time>
      </trkpt>
      <trkpt lat="59.5318323" lon="17.8661246">
        <ele>22.7283</ele>
        <time>2011-01-28T21:41:04Z</time>
      </trkpt>
      <trkpt lat="59.5318017" lon="17.865847">
        <ele>23.209</ele>
        <time>2011-01-28T21:41:08Z</time>
      </trkpt>
      <trkpt lat="59.5317779" lon="17.8655549">
        <ele>25.1317</ele>
        <time>2011-01-28T21:41:12Z</time>
      </trkpt>
      <trkpt lat="59.5317474" lon="17.8653385">
        <ele>26.0929</ele>
        <time>2011-01-28T21:41:15Z</time>
      </trkpt>
      <trkpt lat="59.5317291" lon="17.8651437">
        <ele>26.5736</ele>
        <time>2011-01-28T21:41:18Z</time>
      </trkpt>
      <trkpt lat="59.5317281" lon="17.8648872">
        <ele>28.0155</ele>
        <time>2011-01-28T21:41:22Z</time>
      </trkpt>
      <trkpt lat="59.5318099" lon="17.8648537">
        <ele>27.5349</ele>
        <time>2011-01-28T21:41:26Z</time>
      </trkpt>
      <trkpt lat="59.5318484" lon="17.86508">
        <ele>27.5349</ele>
        <time>2011-01-28T21:41:30Z</time>
      </trkpt>
      <trkpt lat="59.5318596" lon="17.8652333">
        <ele>28.0155</ele>
        <time>2011-01-28T21:41:32Z</time>
      </trkpt>
      <trkpt lat="59.5319404" lon="17.8656586">
        <ele>28.4962</ele>
        <time>2011-01-28T21:41:37Z</time>
      </trkpt>
      <trkpt lat="59.5320375" lon="17.8662067">
        <ele>28.0155</ele>
        <time>2011-01-28T21:41:43Z</time>
      </trkpt>
      <trkpt lat="59.5320602" lon="17.8663948">
        <ele>28.4962</ele>
        <time>2011-01-28T21:41:45Z</time>
      </trkpt>
      <trkpt lat="59.5320721" lon="17.8664921">
        <ele>28.4962</ele>
        <time>2011-01-28T21:41:46Z</time>
      </trkpt>
      <trkpt lat="59.5321333" lon="17.8667831">
        <ele>28.9769</ele>
        <time>2011-01-28T21:41:49Z</time>
      </trkpt>
      <trkpt lat="59.5322328" lon="17.8671526">
        <ele>30.8995</ele>
        <time>2011-01-28T21:41:53Z</time>
      </trkpt>
      <trkpt lat="59.5323918" lon="17.8676123">
        <ele>32.3416</ele>
        <time>2011-01-28T21:41:58Z</time>
      </trkpt>
      <trkpt lat="59.532428" lon="17.8676929">
        <ele>32.8223</ele>
        <time>2011-01-28T21:41:59Z</time>
      </trkpt>
      <trkpt lat="59.5325886" lon="17.8680549">
        <ele>33.7834</ele>
        <time>2011-01-28T21:42:04Z</time>
      </trkpt>
      <trkpt lat="59.5327165" lon="17.8683519">
        <ele>34.2642</ele>
        <time>2011-01-28T21:42:08Z</time>
      </trkpt>
      <trkpt lat="59.5327999" lon="17.8685833">
        <ele>33.3029</ele>
        <time>2011-01-28T21:42:11Z</time>
      </trkpt>
      <trkpt lat="59.5329014" lon="17.8687865">
        <ele>32.3416</ele>
        <time>2011-01-28T21:42:14Z</time>
      </trkpt>
      <trkpt lat="59.5330455" lon="17.8691265">
        <ele>29.9381</ele>
        <time>2011-01-28T21:42:19Z</time>
      </trkpt>
      <trkpt lat="59.5331745" lon="17.8694091">
        <ele>28.9769</ele>
        <time>2011-01-28T21:42:23Z</time>
      </trkpt>
      <trkpt lat="59.5332621" lon="17.8696292">
        <ele>28.9769</ele>
        <time>2011-01-28T21:42:26Z</time>
      </trkpt>
      <trkpt lat="59.5333496" lon="17.8698394">
        <ele>29.4575</ele>
        <time>2011-01-28T21:42:29Z</time>
      </trkpt>
      <trkpt lat="59.5333782" lon="17.869908">
        <ele>29.4575</ele>
        <time>2011-01-28T21:42:30Z</time>
      </trkpt>
      <trkpt lat="59.5336063" lon="17.8700788">
        <ele>30.4188</ele>
        <time>2011-01-28T21:42:36Z</time>
      </trkpt>
      <trkpt lat="59.5336444" lon="17.8699917">
        <ele>28.9769</ele>
        <time>2011-01-28T21:42:38Z</time>
      </trkpt>
      <trkpt lat="59.5336112" lon="17.8696504">
        <ele>25.1317</ele>
        <time>2011-01-28T21:42:44Z</time>
      </trkpt>
      <trkpt lat="59.5335241" lon="17.8694104">
        <ele>23.6896</ele>
        <time>2011-01-28T21:42:48Z</time>
      </trkpt>
      <trkpt lat="59.5334159" lon="17.8692023">
        <ele>23.209</ele>
        <time>2011-01-28T21:42:52Z</time>
      </trkpt>
      <trkpt lat="59.5333206" lon="17.8689441">
        <ele>22.2476</ele>
        <time>2011-01-28T21:42:56Z</time>
      </trkpt>
      <trkpt lat="59.5332095" lon="17.8687054">
        <ele>21.2864</ele>
        <time>2011-01-28T21:43:00Z</time>
      </trkpt>
      <trkpt lat="59.5330956" lon="17.8684195">
        <ele>20.325</ele>
        <time>2011-01-28T21:43:05Z</time>
      </trkpt>
      <trkpt lat="59.5330562" lon="17.8681429">
        <ele>18.8831</ele>
        <time>2011-01-28T21:43:09Z</time>
      </trkpt>
      <trkpt lat="59.5329983" lon="17.8678813">
        <ele>18.4023</ele>
        <time>2011-01-28T21:43:13Z</time>
      </trkpt>
      <trkpt lat="59.5329401" lon="17.8676176">
        <ele>18.4023</ele>
        <time>2011-01-28T21:43:17Z</time>
      </trkpt>
      <trkpt lat="59.5329149" lon="17.8675659">
        <ele>17.9218</ele>
        <time>2011-01-28T21:43:18Z</time>
      </trkpt>
      <trkpt lat="59.5328279" lon="17.8672801">
        <ele>17.4412</ele>
        <time>2011-01-28T21:43:23Z</time>
      </trkpt>
      <trkpt lat="59.5327601" lon="17.8670302">
        <ele>17.9218</ele>
        <time>2011-01-28T21:43:27Z</time>
      </trkpt>
      <trkpt lat="59.5326688" lon="17.8668108">
        <ele>17.9218</ele>
        <time>2011-01-28T21:43:31Z</time>
      </trkpt>
      <trkpt lat="59.5326041" lon="17.8666445">
        <ele>16.9604</ele>
        <time>2011-01-28T21:43:34Z</time>
      </trkpt>
      <trkpt lat="59.5325471" lon="17.8663875">
        <ele>16.4797</ele>
        <time>2011-01-28T21:43:38Z</time>
      </trkpt>
      <trkpt lat="59.5324617" lon="17.8661467">
        <ele>16.9604</ele>
        <time>2011-01-28T21:43:42Z</time>
      </trkpt>
      <trkpt lat="59.5324466" lon="17.8660901">
        <ele>16.9604</ele>
        <time>2011-01-28T21:43:43Z</time>
      </trkpt>
      <trkpt lat="59.5323852" lon="17.8657684">
        <ele>17.9218</ele>
        <time>2011-01-28T21:43:48Z</time>
      </trkpt>
      <trkpt lat="59.5323414" lon="17.8655244">
        <ele>18.8831</ele>
        <time>2011-01-28T21:43:52Z</time>
      </trkpt>
      <trkpt lat="59.5323108" lon="17.8652617">
        <ele>19.3638</ele>
        <time>2011-01-28T21:43:56Z</time>
      </trkpt>
      <trkpt lat="59.532303" lon="17.8652007">
        <ele>19.3638</ele>
        <time>2011-01-28T21:43:57Z</time>
      </trkpt>
      <trkpt lat="59.5322763" lon="17.8648926">
        <ele>21.2864</ele>
        <time>2011-01-28T21:44:01Z</time>
      </trkpt>
      <trkpt lat="59.532253" lon="17.8646082">
        <ele>23.6896</ele>
        <time>2011-01-28T21:44:05Z</time>
      </trkpt>
      <trkpt lat="59.5322349" lon="17.8644232">
        <ele>24.1703</ele>
        <time>2011-01-28T21:44:08Z</time>
      </trkpt>
      <trkpt lat="59.5322204" lon="17.8641495">
        <ele>25.1317</ele>
        <time>2011-01-28T21:44:12Z</time>
      </trkpt>
      <trkpt lat="59.5321964" lon="17.8639063">
        <ele>25.6123</ele>
        <time>2011-01-28T21:44:16Z</time>
      </trkpt>
      <trkpt lat="59.5321613" lon="17.8636491">
        <ele>26.0929</ele>
        <time>2011-01-28T21:44:20Z</time>
      </trkpt>
      <trkpt lat="59.5321478" lon="17.8635923">
        <ele>26.0929</ele>
        <time>2011-01-28T21:44:21Z</time>
      </trkpt>
      <trkpt lat="59.5320249" lon="17.8635156">
        <ele>26.5736</ele>
        <time>2011-01-28T21:44:25Z</time>
      </trkpt>
      <trkpt lat="59.5317935" lon="17.8636202">
        <ele>28.0155</ele>
        <time>2011-01-28T21:44:31Z</time>
      </trkpt>
      <trkpt lat="59.5316805" lon="17.8637299">
        <ele>28.0155</ele>
        <time>2011-01-28T21:44:34Z</time>
      </trkpt>
      <trkpt lat="59.5315686" lon="17.8638679">
        <ele>26.5736</ele>
        <time>2011-01-28T21:44:37Z</time>
      </trkpt>
      <trkpt lat="59.5314035" lon="17.8641341">
        <ele>25.1317</ele>
        <time>2011-01-28T21:44:42Z</time>
      </trkpt>
      <trkpt lat="59.5313708" lon="17.864189">
        <ele>25.1317</ele>
        <time>2011-01-28T21:44:43Z</time>
      </trkpt>
      <trkpt lat="59.5312815" lon="17.8643587">
        <ele>24.651</ele>
        <time>2011-01-28T21:44:46Z</time>
      </trkpt>
      <trkpt lat="59.5312098" lon="17.8644687">
        <ele>24.651</ele>
        <time>2011-01-28T21:44:48Z</time>
      </trkpt>
      <trkpt lat="59.5310807" lon="17.8646983">
        <ele>23.6896</ele>
        <time>2011-01-28T21:44:52Z</time>
      </trkpt>
      <trkpt lat="59.5309562" lon="17.8649337">
        <ele>23.209</ele>
        <time>2011-01-28T21:44:56Z</time>
      </trkpt>
      <trkpt lat="59.5309314" lon="17.8649822">
        <ele>23.209</ele>
        <time>2011-01-28T21:44:57Z</time>
      </trkpt>
      <trkpt lat="59.5309047" lon="17.865237">
        <ele>21.767</ele>
        <time>2011-01-28T21:45:01Z</time>
      </trkpt>
      <trkpt lat="59.5309437" lon="17.8653412">
        <ele>20.325</ele>
        <time>2011-01-28T21:45:03Z</time>
      </trkpt>
      <trkpt lat="59.5311106" lon="17.8654058">
        <ele>24.1703</ele>
        <time>2011-01-28T21:45:07Z</time>
      </trkpt>
      <trkpt lat="59.5313195" lon="17.8653499">
        <ele>25.1317</ele>
        <time>2011-01-28T21:45:11Z</time>
      </trkpt>
      <trkpt lat="59.5314143" lon="17.8653261">
        <ele>25.6123</ele>
        <time>2011-01-28T21:45:13Z</time>
      </trkpt>
      <trkpt lat="59.5315708" lon="17.8654462">
        <ele>27.0543</ele>
        <time>2011-01-28T21:45:17Z</time>
      </trkpt>
      <trkpt lat="59.531592" lon="17.8655178">
        <ele>27.0543</ele>
        <time>2011-01-28T21:45:18Z</time>
      </trkpt>
      <trkpt lat="59.5316722" lon="17.8659306">
        <ele>28.0155</ele>
        <time>2011-01-28T21:45:24Z</time>
      </trkpt>
      <trkpt lat="59.5316931" lon="17.8660747">
        <ele>28.0155</ele>
        <time>2011-01-28T21:45:26Z</time>
      </trkpt>
      <trkpt lat="59.5317176" lon="17.86627">
        <ele>28.4962</ele>
        <time>2011-01-28T21:45:28Z</time>
      </trkpt>
      <trkpt lat="59.5317338" lon="17.866488">
        <ele>28.0155</ele>
        <time>2011-01-28T21:45:30Z</time>
      </trkpt>
      <trkpt lat="59.5316286" lon="17.8667688">
        <ele>28.9769</ele>
        <time>2011-01-28T21:45:34Z</time>
      </trkpt>
      <trkpt lat="59.5314931" lon="17.8669261">
        <ele>29.4575</ele>
        <time>2011-01-28T21:45:38Z</time>
      </trkpt>
      <trkpt lat="59.5313875" lon="17.8671188">
        <ele>29.4575</ele>
        <time>2011-01-28T21:45:42Z</time>
      </trkpt>
      <trkpt lat="59.5313794" lon="17.8672905">
        <ele>28.0155</ele>
        <time>2011-01-28T21:45:45Z</time>
      </trkpt>
      <trkpt lat="59.5315018" lon="17.8675281">
        <ele>28.4962</ele>
        <time>2011-01-28T21:45:50Z</time>
      </trkpt>
      <trkpt lat="59.531663" lon="17.8677388">
        <ele>32.3416</ele>
        <time>2011-01-28T21:45:54Z</time>
      </trkpt>
      <trkpt lat="59.5318141" lon="17.8680258">
        <ele>32.3416</ele>
        <time>2011-01-28T21:45:58Z</time>
      </trkpt>
      <trkpt lat="59.5319518" lon="17.8684979">
        <ele>29.4575</ele>
        <time>2011-01-28T21:46:04Z</time>
      </trkpt>
      <trkpt lat="59.5320156" lon="17.8687318">
        <ele>28.4962</ele>
        <time>2011-01-28T21:46:07Z</time>
      </trkpt>
      <trkpt lat="59.5320778" lon="17.8689875">
        <ele>28.9769</ele>
        <time>2011-01-28T21:46:10Z</time>
      </trkpt>
      <trkpt lat="59.5321939" lon="17.8692837">
        <ele>29.4575</ele>
        <time>2011-01-28T21:46:14Z</time>
      </trkpt>
      <trkpt lat="59.5323819" lon="17.8695917">
        <ele>29.9381</ele>
        <time>2011-01-28T21:46:19Z</time>
      </trkpt>
      <trkpt lat="59.5325156" lon="17.8698685">
        <ele>31.3801</ele>
        <time>2011-01-28T21:46:23Z</time>
      </trkpt>
      <trkpt lat="59.5325337" lon="17.8699499">
        <ele>30.4188</ele>
        <time>2011-01-28T21:46:24Z</time>
      </trkpt>
      <trkpt lat="59.53259" lon="17.8701244">
        <ele>30.8995</ele>
        <time>2011-01-28T21:46:26Z</time>
      </trkpt>
      <trkpt lat="59.5326905" lon="17.8704441">
        <ele>28.9769</ele>
        <time>2011-01-28T21:46:30Z</time>
      </trkpt>
      <trkpt lat="59.5328088" lon="17.8708948">
        <ele>28.0155</ele>
        <time>2011-01-28T21:46:35Z</time>
      </trkpt>
      <trkpt lat="59.5328362" lon="17.8709888">
        <ele>28.9769</ele>
        <time>2011-01-28T21:46:36Z</time>
      </trkpt>
      <trkpt lat="59.5329068" lon="17.8712522">
        <ele>28.9769</ele>
        <time>2011-01-28T21:46:39Z</time>
      </trkpt>
      <trkpt lat="59.5328943" lon="17.871578">
        <ele>29.4575</ele>
        <time>2011-01-28T21:46:43Z</time>
      </trkpt>
      <trkpt lat="59.5328409" lon="17.8720714">
        <ele>31.8607</ele>
        <time>2011-01-28T21:46:50Z</time>
      </trkpt>
      <trkpt lat="59.532846" lon="17.8723545">
        <ele>32.3416</ele>
        <time>2011-01-28T21:46:54Z</time>
      </trkpt>
      <trkpt lat="59.5328657" lon="17.8726346">
        <ele>31.8607</ele>
        <time>2011-01-28T21:46:58Z</time>
      </trkpt>
      <trkpt lat="59.5329368" lon="17.8727848">
        <ele>31.3801</ele>
        <time>2011-01-28T21:47:01Z</time>
      </trkpt>
      <trkpt lat="59.5331536" lon="17.8727906">
        <ele>30.8995</ele>
        <time>2011-01-28T21:47:06Z</time>
      </trkpt>
      <trkpt lat="59.5333422" lon="17.8729976">
        <ele>30.4188</ele>
        <time>2011-01-28T21:47:10Z</time>
      </trkpt>
      <trkpt lat="59.5333719" lon="17.8730807">
        <ele>29.9381</ele>
        <time>2011-01-28T21:47:11Z</time>
      </trkpt>
      <trkpt lat="59.5335545" lon="17.8734204">
        <ele>28.9769</ele>
        <time>2011-01-28T21:47:16Z</time>
      </trkpt>
      <trkpt lat="59.533712" lon="17.8735573">
        <ele>28.0155</ele>
        <time>2011-01-28T21:47:19Z</time>
      </trkpt>
      <trkpt lat="59.5338433" lon="17.8739013">
        <ele>27.0543</ele>
        <time>2011-01-28T21:47:23Z</time>
      </trkpt>
      <trkpt lat="59.5338397" lon="17.8742033">
        <ele>26.0929</ele>
        <time>2011-01-28T21:47:26Z</time>
      </trkpt>
      <trkpt lat="59.5337292" lon="17.874418">
        <ele>25.6123</ele>
        <time>2011-01-28T21:47:29Z</time>
      </trkpt>
      <trkpt lat="59.5335182" lon="17.8746526">
        <ele>26.0929</ele>
        <time>2011-01-28T21:47:34Z</time>
      </trkpt>
      <trkpt lat="59.5334349" lon="17.8747553">
        <ele>25.6123</ele>
        <time>2011-01-28T21:47:36Z</time>
      </trkpt>
      <trkpt lat="59.5333205" lon="17.8748982">
        <ele>24.651</ele>
        <time>2011-01-28T21:47:39Z</time>
      </trkpt>
      <trkpt lat="59.5331469" lon="17.8750639">
        <ele>24.651</ele>
        <time>2011-01-28T21:47:44Z</time>
      </trkpt>
      <trkpt lat="59.533117" lon="17.8750848">
        <ele>25.1317</ele>
        <time>2011-01-28T21:47:45Z</time>
      </trkpt>
      <trkpt lat="59.5329606" lon="17.8752231">
        <ele>25.6123</ele>
        <time>2011-01-28T21:47:50Z</time>
      </trkpt>
      <trkpt lat="59.5327607" lon="17.8753123">
        <ele>22.7283</ele>
        <time>2011-01-28T21:47:55Z</time>
      </trkpt>
      <trkpt lat="59.5326066" lon="17.875379">
        <ele>20.8057</ele>
        <time>2011-01-28T21:47:59Z</time>
      </trkpt>
      <trkpt lat="59.5324497" lon="17.8754263">
        <ele>20.325</ele>
        <time>2011-01-28T21:48:03Z</time>
      </trkpt>
      <trkpt lat="59.5323004" lon="17.87547">
        <ele>18.4023</ele>
        <time>2011-01-28T21:48:07Z</time>
      </trkpt>
      <trkpt lat="59.5321624" lon="17.8755468">
        <ele>17.9218</ele>
        <time>2011-01-28T21:48:11Z</time>
      </trkpt>
      <trkpt lat="59.532043" lon="17.875679">
        <ele>18.4023</ele>
        <time>2011-01-28T21:48:15Z</time>
      </trkpt>
      <trkpt lat="59.5319032" lon="17.8757558">
        <ele>17.9218</ele>
        <time>2011-01-28T21:48:19Z</time>
      </trkpt>
      <trkpt lat="59.5317908" lon="17.8757742">
        <ele>17.4412</ele>
        <time>2011-01-28T21:48:22Z</time>
      </trkpt>
      <trkpt lat="59.5316245" lon="17.8757028">
        <ele>17.4412</ele>
        <time>2011-01-28T21:48:26Z</time>
      </trkpt>
      <trkpt lat="59.5314987" lon="17.8756371">
        <ele>18.4023</ele>
        <time>2011-01-28T21:48:29Z</time>
      </trkpt>
      <trkpt lat="59.5313102" lon="17.8755147">
        <ele>19.8444</ele>
        <time>2011-01-28T21:48:34Z</time>
      </trkpt>
      <trkpt lat="59.5312732" lon="17.8754889">
        <ele>20.325</ele>
        <time>2011-01-28T21:48:35Z</time>
      </trkpt>
      <trkpt lat="59.5310335" lon="17.875387">
        <ele>21.2864</ele>
        <time>2011-01-28T21:48:41Z</time>
      </trkpt>
      <trkpt lat="59.5308563" lon="17.8753007">
        <ele>20.8057</ele>
        <time>2011-01-28T21:48:46Z</time>
      </trkpt>
      <trkpt lat="59.5307248" lon="17.8752807">
        <ele>21.2864</ele>
        <time>2011-01-28T21:48:50Z</time>
      </trkpt>
      <trkpt lat="59.5305958" lon="17.8754153">
        <ele>20.8057</ele>
        <time>2011-01-28T21:48:54Z</time>
      </trkpt>
      <trkpt lat="59.5305596" lon="17.8754612">
        <ele>20.8057</ele>
        <time>2011-01-28T21:48:55Z</time>
      </trkpt>
      <trkpt lat="59.5303989" lon="17.8755581">
        <ele>19.8444</ele>
        <time>2011-01-28T21:48:59Z</time>
      </trkpt>
      <trkpt lat="59.5302602" lon="17.8755882">
        <ele>19.8444</ele>
        <time>2011-01-28T21:49:02Z</time>
      </trkpt>
      <trkpt lat="59.5300447" lon="17.8755172">
        <ele>19.8444</ele>
        <time>2011-01-28T21:49:07Z</time>
      </trkpt>
      <trkpt lat="59.5299109" lon="17.8753494">
        <ele>20.325</ele>
        <time>2011-01-28T21:49:11Z</time>
      </trkpt>
      <trkpt lat="59.5297411" lon="17.8752149">
        <ele>21.2864</ele>
        <time>2011-01-28T21:49:16Z</time>
      </trkpt>
      <trkpt lat="59.5296296" lon="17.8751598">
        <ele>22.2476</ele>
        <time>2011-01-28T21:49:19Z</time>
      </trkpt>
      <trkpt lat="59.5295359" lon="17.8748881">
        <ele>24.1703</ele>
        <time>2011-01-28T21:49:24Z</time>
      </trkpt>
      <trkpt lat="59.5294479" lon="17.8746714">
        <ele>25.6123</ele>
        <time>2011-01-28T21:49:29Z</time>
      </trkpt>
      <trkpt lat="59.5293242" lon="17.8746689">
        <ele>27.0543</ele>
        <time>2011-01-28T21:49:33Z</time>
      </trkpt>
      <trkpt lat="59.529177" lon="17.8747746">
        <ele>27.5349</ele>
        <time>2011-01-28T21:49:36Z</time>
      </trkpt>
      <trkpt lat="59.5290295" lon="17.8749155">
        <ele>26.5736</ele>
        <time>2011-01-28T21:49:39Z</time>
      </trkpt>
      <trkpt lat="59.5288843" lon="17.8750367">
        <ele>25.6123</ele>
        <time>2011-01-28T21:49:42Z</time>
      </trkpt>
      <trkpt lat="59.5286813" lon="17.875294">
        <ele>24.1703</ele>
        <time>2011-01-28T21:49:47Z</time>
      </trkpt>
      <trkpt lat="59.5285355" lon="17.8755493">
        <ele>24.1703</ele>
        <time>2011-01-28T21:49:51Z</time>
      </trkpt>
      <trkpt lat="59.5283923" lon="17.8757344">
        <ele>24.651</ele>
        <time>2011-01-28T21:49:55Z</time>
      </trkpt>
      <trkpt lat="59.5282882" lon="17.8756755">
        <ele>24.651</ele>
        <time>2011-01-28T21:49:58Z</time>
      </trkpt>
      <trkpt lat="59.5282343" lon="17.8755783">
        <ele>25.1317</ele>
        <time>2011-01-28T21:50:00Z</time>
      </trkpt>
      <trkpt lat="59.5280616" lon="17.875268">
        <ele>25.1317</ele>
        <time>2011-01-28T21:50:06Z</time>
      </trkpt>
      <trkpt lat="59.5279815" lon="17.8751092">
        <ele>25.6123</ele>
        <time>2011-01-28T21:50:09Z</time>
      </trkpt>
      <trkpt lat="59.5278711" lon="17.8749481">
        <ele>26.0929</ele>
        <time>2011-01-28T21:50:13Z</time>
      </trkpt>
      <trkpt lat="59.5277757" lon="17.8749204">
        <ele>26.0929</ele>
        <time>2011-01-28T21:50:16Z</time>
      </trkpt>
      <trkpt lat="59.5276945" lon="17.8750593">
        <ele>25.6123</ele>
        <time>2011-01-28T21:50:20Z</time>
      </trkpt>
      <trkpt lat="59.5275313" lon="17.8753934">
        <ele>24.651</ele>
        <time>2011-01-28T21:50:25Z</time>
      </trkpt>
      <trkpt lat="59.5273749" lon="17.8754661">
        <ele>24.651</ele>
        <time>2011-01-28T21:50:29Z</time>
      </trkpt>
      <trkpt lat="59.5272022" lon="17.8754571">
        <ele>22.7283</ele>
        <time>2011-01-28T21:50:34Z</time>
      </trkpt>
      <trkpt lat="59.5270398" lon="17.8753631">
        <ele>22.2476</ele>
        <time>2011-01-28T21:50:39Z</time>
      </trkpt>
      <trkpt lat="59.5269371" lon="17.8752349">
        <ele>23.209</ele>
        <time>2011-01-28T21:50:43Z</time>
      </trkpt>
      <trkpt lat="59.5269096" lon="17.8749347">
        <ele>23.209</ele>
        <time>2011-01-28T21:50:49Z</time>
      </trkpt>
      <trkpt lat="59.526954" lon="17.8746863">
        <ele>22.7283</ele>
        <time>2011-01-28T21:50:53Z</time>
      </trkpt>
      <trkpt lat="59.5269463" lon="17.8744445">
        <ele>22.7283</ele>
        <time>2011-01-28T21:50:57Z</time>
      </trkpt>
      <trkpt lat="59.5269269" lon="17.8743995">
        <ele>22.7283</ele>
        <time>2011-01-28T21:50:58Z</time>
      </trkpt>
      <trkpt lat="59.5267797" lon="17.8744037">
        <ele>23.209</ele>
        <time>2011-01-28T21:51:03Z</time>
      </trkpt>
      <trkpt lat="59.5267475" lon="17.8744468">
        <ele>23.209</ele>
        <time>2011-01-28T21:51:04Z</time>
      </trkpt>
      <trkpt lat="59.5265881" lon="17.8747166">
        <ele>22.2476</ele>
        <time>2011-01-28T21:51:09Z</time>
      </trkpt>
      <trkpt lat="59.5264736" lon="17.8748676">
        <ele>21.767</ele>
        <time>2011-01-28T21:51:12Z</time>
      </trkpt>
      <trkpt lat="59.5263312" lon="17.8750595">
        <ele>22.7283</ele>
        <time>2011-01-28T21:51:16Z</time>
      </trkpt>
      <trkpt lat="59.5262311" lon="17.8752356">
        <ele>22.7283</ele>
        <time>2011-01-28T21:51:20Z</time>
      </trkpt>
      <trkpt lat="59.5260234" lon="17.8753717">
        <ele>24.651</ele>
        <time>2011-01-28T21:51:26Z</time>
      </trkpt>
      <trkpt lat="59.5259026" lon="17.8752423">
        <ele>25.1317</ele>
        <time>2011-01-28T21:51:30Z</time>
      </trkpt>
      <trkpt lat="59.5258843" lon="17.8749065">
        <ele>25.6123</ele>
        <time>2011-01-28T21:51:35Z</time>
      </trkpt>
      <trkpt lat="59.5259389" lon="17.8745934">
        <ele>26.0929</ele>
        <time>2011-01-28T21:51:39Z</time>
      </trkpt>
      <trkpt lat="59.5259584" lon="17.8742343">
        <ele>26.5736</ele>
        <time>2011-01-28T21:51:44Z</time>
      </trkpt>
      <trkpt lat="59.5259487" lon="17.8741705">
        <ele>26.0929</ele>
        <time>2011-01-28T21:51:45Z</time>
      </trkpt>
      <trkpt lat="59.5258048" lon="17.8739885">
        <ele>25.6123</ele>
        <time>2011-01-28T21:51:50Z</time>
      </trkpt>
      <trkpt lat="59.5256865" lon="17.8739473">
        <ele>25.6123</ele>
        <time>2011-01-28T21:51:53Z</time>
      </trkpt>
      <trkpt lat="59.5255095" lon="17.8738867">
        <ele>25.6123</ele>
        <time>2011-01-28T21:51:58Z</time>
      </trkpt>
      <trkpt lat="59.5254018" lon="17.8738876">
        <ele>26.0929</ele>
        <time>2011-01-28T21:52:01Z</time>
      </trkpt>
      <trkpt lat="59.525286" lon="17.874126">
        <ele>27.0543</ele>
        <time>2011-01-28T21:52:06Z</time>
      </trkpt>
      <trkpt lat="59.5253198" lon="17.8743699">
        <ele>27.0543</ele>
        <time>2011-01-28T21:52:10Z</time>
      </trkpt>
      <trkpt lat="59.525422" lon="17.8745348">
        <ele>27.5349</ele>
        <time>2011-01-28T21:52:13Z</time>
      </trkpt>
      <trkpt lat="59.5255773" lon="17.8747128">
        <ele>29.4575</ele>
        <time>2011-01-28T21:52:17Z</time>
      </trkpt>
      <trkpt lat="59.5256839" lon="17.8750729">
        <ele>30.4188</ele>
        <time>2011-01-28T21:52:22Z</time>
      </trkpt>
      <trkpt lat="59.5256778" lon="17.8752086">
        <ele>31.3801</ele>
        <time>2011-01-28T21:52:24Z</time>
      </trkpt>
      <trkpt lat="59.5256323" lon="17.8754444">
        <ele>31.3801</ele>
        <time>2011-01-28T21:52:28Z</time>
      </trkpt>
      <trkpt lat="59.5256074" lon="17.8754887">
        <ele>31.3801</ele>
        <time>2011-01-28T21:52:29Z</time>
      </trkpt>
      <trkpt lat="59.5254831" lon="17.8756344">
        <ele>31.3801</ele>
        <time>2011-01-28T21:52:34Z</time>
      </trkpt>
      <trkpt lat="59.5253417" lon="17.8757459">
        <ele>33.3029</ele>
        <time>2011-01-28T21:52:39Z</time>
      </trkpt>
      <trkpt lat="59.5252387" lon="17.8759099">
        <ele>34.2642</ele>
        <time>2011-01-28T21:52:43Z</time>
      </trkpt>
      <trkpt lat="59.5251764" lon="17.8760883">
        <ele>34.7449</ele>
        <time>2011-01-28T21:52:47Z</time>
      </trkpt>
      <trkpt lat="59.5250736" lon="17.8762339">
        <ele>36.1868</ele>
        <time>2011-01-28T21:52:51Z</time>
      </trkpt>
      <trkpt lat="59.5250428" lon="17.8762601">
        <ele>36.1868</ele>
        <time>2011-01-28T21:52:52Z</time>
      </trkpt>
      <trkpt lat="59.5249976" lon="17.876324">
        <ele>36.6675</ele>
        <time>2011-01-28T21:52:54Z</time>
      </trkpt>
      <trkpt lat="59.5249884" lon="17.8764484">
        <ele>44.358</ele>
        <time>2011-01-28T21:53:50Z</time>
      </trkpt>
      <trkpt lat="59.5249863" lon="17.8764517">
        <ele>44.358</ele>
        <time>2011-01-28T21:53:51Z</time>
      </trkpt>
      <trkpt lat="59.5249849" lon="17.8764643">
        <ele>44.358</ele>
        <time>2011-01-28T21:53:52Z</time>
      </trkpt>
      <trkpt lat="59.5249889" lon="17.8766036">
        <ele>44.358</ele>
        <time>2011-01-28T21:53:56Z</time>
      </trkpt>
      <trkpt lat="59.5251044" lon="17.8768055">
        <ele>44.358</ele>
        <time>2011-01-28T21:54:01Z</time>
      </trkpt>
      <trkpt lat="59.5252416" lon="17.8770497">
        <ele>45.7999</ele>
        <time>2011-01-28T21:54:05Z</time>
      </trkpt>
      <trkpt lat="59.5253913" lon="17.8772786">
        <ele>43.3966</ele>
        <time>2011-01-28T21:54:10Z</time>
      </trkpt>
      <trkpt lat="59.5256194" lon="17.8775326">
        <ele>40.0321</ele>
        <time>2011-01-28T21:54:17Z</time>
      </trkpt>
      <trkpt lat="59.5257617" lon="17.877736">
        <ele>38.5901</ele>
        <time>2011-01-28T21:54:21Z</time>
      </trkpt>
      <trkpt lat="59.5258001" lon="17.8777951">
        <ele>38.5901</ele>
        <time>2011-01-28T21:54:22Z</time>
      </trkpt>
      <trkpt lat="59.5259954" lon="17.878027">
        <ele>36.1868</ele>
        <time>2011-01-28T21:54:27Z</time>
      </trkpt>
      <trkpt lat="59.5261436" lon="17.8780126">
        <ele>34.2642</ele>
        <time>2011-01-28T21:54:30Z</time>
      </trkpt>
      <trkpt lat="59.5262563" lon="17.8779946">
        <ele>32.3416</ele>
        <time>2011-01-28T21:54:32Z</time>
      </trkpt>
      <trkpt lat="59.5265028" lon="17.8780307">
        <ele>30.8995</ele>
        <time>2011-01-28T21:54:37Z</time>
      </trkpt>
      <trkpt lat="59.5266" lon="17.8778323">
        <ele>29.4575</ele>
        <time>2011-01-28T21:54:40Z</time>
      </trkpt>
      <trkpt lat="59.5266499" lon="17.8773347">
        <ele>26.5736</ele>
        <time>2011-01-28T21:54:45Z</time>
      </trkpt>
      <trkpt lat="59.5266071" lon="17.8770635">
        <ele>26.0929</ele>
        <time>2011-01-28T21:54:48Z</time>
      </trkpt>
      <trkpt lat="59.526475" lon="17.8770087">
        <ele>25.6123</ele>
        <time>2011-01-28T21:54:51Z</time>
      </trkpt>
      <trkpt lat="59.5263635" lon="17.877147">
        <ele>24.651</ele>
        <time>2011-01-28T21:54:54Z</time>
      </trkpt>
      <trkpt lat="59.526314" lon="17.8772843">
        <ele>24.651</ele>
        <time>2011-01-28T21:54:56Z</time>
      </trkpt>
      <trkpt lat="59.5261745" lon="17.8775846">
        <ele>26.0929</ele>
        <time>2011-01-28T21:55:01Z</time>
      </trkpt>
      <trkpt lat="59.5260772" lon="17.8777122">
        <ele>27.5349</ele>
        <time>2011-01-28T21:55:04Z</time>
      </trkpt>
      <trkpt lat="59.5259151" lon="17.8777588">
        <ele>28.9769</ele>
        <time>2011-01-28T21:55:09Z</time>
      </trkpt>
      <trkpt lat="59.5258814" lon="17.8777448">
        <ele>28.9769</ele>
        <time>2011-01-28T21:55:10Z</time>
      </trkpt>
      <trkpt lat="59.525701" lon="17.8776178">
        <ele>29.9381</ele>
        <time>2011-01-28T21:55:16Z</time>
      </trkpt>
      <trkpt lat="59.5256141" lon="17.8775133">
        <ele>30.8995</ele>
        <time>2011-01-28T21:55:20Z</time>
      </trkpt>
      <trkpt lat="59.5255393" lon="17.8773497">
        <ele>30.4188</ele>
        <time>2011-01-28T21:55:24Z</time>
      </trkpt>
      <trkpt lat="59.5255165" lon="17.8772164">
        <ele>30.8995</ele>
        <time>2011-01-28T21:55:26Z</time>
      </trkpt>
      <trkpt lat="59.525592" lon="17.8769361">
        <ele>31.8607</ele>
        <time>2011-01-28T21:55:30Z</time>
      </trkpt>
      <trkpt lat="59.52571" lon="17.8768941">
        <ele>29.4575</ele>
        <time>2011-01-28T21:55:33Z</time>
      </trkpt>
      <trkpt lat="59.5258223" lon="17.8770723">
        <ele>28.9769</ele>
        <time>2011-01-28T21:55:36Z</time>
      </trkpt>
      <trkpt lat="59.525841" lon="17.8771344">
        <ele>28.4962</ele>
        <time>2011-01-28T21:55:37Z</time>
      </trkpt>
      <trkpt lat="59.5259879" lon="17.8773237">
        <ele>27.5349</ele>
        <time>2011-01-28T21:55:42Z</time>
      </trkpt>
      <trkpt lat="59.5260617" lon="17.8771548">
        <ele>26.5736</ele>
        <time>2011-01-28T21:55:45Z</time>
      </trkpt>
      <trkpt lat="59.526011" lon="17.8769228">
        <ele>26.0929</ele>
        <time>2011-01-28T21:55:48Z</time>
      </trkpt>
      <trkpt lat="59.5258804" lon="17.8767683">
        <ele>27.0543</ele>
        <time>2011-01-28T21:55:52Z</time>
      </trkpt>
      <trkpt lat="59.5257924" lon="17.8767523">
        <ele>28.4962</ele>
        <time>2011-01-28T21:55:54Z</time>
      </trkpt>
      <trkpt lat="59.5256813" lon="17.8767109">
        <ele>29.9381</ele>
        <time>2011-01-28T21:55:57Z</time>
      </trkpt>
      <trkpt lat="59.5254887" lon="17.8765884">
        <ele>32.3416</ele>
        <time>2011-01-28T21:56:03Z</time>
      </trkpt>
      <trkpt lat="59.525401" lon="17.8762046">
        <ele>32.8223</ele>
        <time>2011-01-28T21:56:09Z</time>
      </trkpt>
      <trkpt lat="59.5255073" lon="17.8759669">
        <ele>31.8607</ele>
        <time>2011-01-28T21:56:13Z</time>
      </trkpt>
      <trkpt lat="59.5257067" lon="17.8760136">
        <ele>28.9769</ele>
        <time>2011-01-28T21:56:17Z</time>
      </trkpt>
      <trkpt lat="59.525752" lon="17.8760691">
        <ele>28.4962</ele>
        <time>2011-01-28T21:56:18Z</time>
      </trkpt>
      <trkpt lat="59.5258685" lon="17.8762388">
        <ele>26.0929</ele>
        <time>2011-01-28T21:56:21Z</time>
      </trkpt>
      <trkpt lat="59.5259281" lon="17.8763722">
        <ele>25.6123</ele>
        <time>2011-01-28T21:56:23Z</time>
      </trkpt>
      <trkpt lat="59.5259941" lon="17.876501">
        <ele>25.6123</ele>
        <time>2011-01-28T21:56:25Z</time>
      </trkpt>
      <trkpt lat="59.5260699" lon="17.876611">
        <ele>25.1317</ele>
        <time>2011-01-28T21:56:27Z</time>
      </trkpt>
      <trkpt lat="59.5262315" lon="17.8767335">
        <ele>23.209</ele>
        <time>2011-01-28T21:56:31Z</time>
      </trkpt>
      <trkpt lat="59.526344" lon="17.8766067">
        <ele>22.7283</ele>
        <time>2011-01-28T21:56:34Z</time>
      </trkpt>
      <trkpt lat="59.5263873" lon="17.8764009">
        <ele>22.7283</ele>
        <time>2011-01-28T21:56:37Z</time>
      </trkpt>
      <trkpt lat="59.5263461" lon="17.8762539">
        <ele>23.209</ele>
        <time>2011-01-28T21:56:40Z</time>
      </trkpt>
      <trkpt lat="59.5263243" lon="17.8762083">
        <ele>23.209</ele>
        <time>2011-01-28T21:56:41Z</time>
      </trkpt>
      <trkpt lat="59.5262285" lon="17.8759742">
        <ele>21.767</ele>
        <time>2011-01-28T21:56:44Z</time>
      </trkpt>
      <trkpt lat="59.5261605" lon="17.8756402">
        <ele>20.325</ele>
        <time>2011-01-28T21:56:48Z</time>
      </trkpt>
      <trkpt lat="59.5262425" lon="17.8754551">
        <ele>20.8057</ele>
        <time>2011-01-28T21:56:51Z</time>
      </trkpt>
      <trkpt lat="59.5262804" lon="17.8754252">
        <ele>20.8057</ele>
        <time>2011-01-28T21:56:52Z</time>
      </trkpt>
      <trkpt lat="59.5265445" lon="17.8754657">
        <ele>20.325</ele>
        <time>2011-01-28T21:56:58Z</time>
      </trkpt>
      <trkpt lat="59.5267449" lon="17.8755266">
        <ele>21.2864</ele>
        <time>2011-01-28T21:57:02Z</time>
      </trkpt>
      <trkpt lat="59.5268385" lon="17.8755473">
        <ele>21.767</ele>
        <time>2011-01-28T21:57:04Z</time>
      </trkpt>
      <trkpt lat="59.5269988" lon="17.8756194">
        <ele>22.2476</ele>
        <time>2011-01-28T21:57:08Z</time>
      </trkpt>
      <trkpt lat="59.5270989" lon="17.8758418">
        <ele>21.767</ele>
        <time>2011-01-28T21:57:12Z</time>
      </trkpt>
      <trkpt lat="59.527076" lon="17.8760271">
        <ele>22.2476</ele>
        <time>2011-01-28T21:57:15Z</time>
      </trkpt>
      <trkpt lat="59.5270711" lon="17.8761937">
        <ele>23.209</ele>
        <time>2011-01-28T21:57:18Z</time>
      </trkpt>
      <trkpt lat="59.5271095" lon="17.8763089">
        <ele>23.6896</ele>
        <time>2011-01-28T21:57:20Z</time>
      </trkpt>
      <trkpt lat="59.5273344" lon="17.8765959">
        <ele>25.6123</ele>
        <time>2011-01-28T21:57:26Z</time>
      </trkpt>
      <trkpt lat="59.52738" lon="17.8766179">
        <ele>25.6123</ele>
        <time>2011-01-28T21:57:27Z</time>
      </trkpt>
      <trkpt lat="59.5275084" lon="17.8765881">
        <ele>24.651</ele>
        <time>2011-01-28T21:57:30Z</time>
      </trkpt>
      <trkpt lat="59.527549" lon="17.8765414">
        <ele>23.6896</ele>
        <time>2011-01-28T21:57:31Z</time>
      </trkpt>
      <trkpt lat="59.5276276" lon="17.8764124">
        <ele>23.209</ele>
        <time>2011-01-28T21:57:33Z</time>
      </trkpt>
      <trkpt lat="59.5277399" lon="17.8762461">
        <ele>23.209</ele>
        <time>2011-01-28T21:57:36Z</time>
      </trkpt>
      <trkpt lat="59.5279006" lon="17.8760145">
        <ele>23.6896</ele>
        <time>2011-01-28T21:57:41Z</time>
      </trkpt>
      <trkpt lat="59.5280457" lon="17.8758311">
        <ele>23.6896</ele>
        <time>2011-01-28T21:57:45Z</time>
      </trkpt>
      <trkpt lat="59.5281243" lon="17.8757527">
        <ele>23.6896</ele>
        <time>2011-01-28T21:57:47Z</time>
      </trkpt>
      <trkpt lat="59.5282809" lon="17.8757268">
        <ele>23.6896</ele>
        <time>2011-01-28T21:57:51Z</time>
      </trkpt>
      <trkpt lat="59.5283399" lon="17.8759241">
        <ele>23.6896</ele>
        <time>2011-01-28T21:57:54Z</time>
      </trkpt>
      <trkpt lat="59.5282783" lon="17.8760685">
        <ele>23.6896</ele>
        <time>2011-01-28T21:57:57Z</time>
      </trkpt>
      <trkpt lat="59.5282398" lon="17.876101">
        <ele>23.6896</ele>
        <time>2011-01-28T21:57:58Z</time>
      </trkpt>
      <trkpt lat="59.5280602" lon="17.8763202">
        <ele>23.209</ele>
        <time>2011-01-28T21:58:03Z</time>
      </trkpt>
      <trkpt lat="59.527879" lon="17.8765326">
        <ele>22.7283</ele>
        <time>2011-01-28T21:58:08Z</time>
      </trkpt>
      <trkpt lat="59.5277386" lon="17.8766979">
        <ele>22.7283</ele>
        <time>2011-01-28T21:58:12Z</time>
      </trkpt>
      <trkpt lat="59.5276829" lon="17.8768034">
        <ele>23.6896</ele>
        <time>2011-01-28T21:58:14Z</time>
      </trkpt>
      <trkpt lat="59.5276336" lon="17.8770751">
        <ele>23.6896</ele>
        <time>2011-01-28T21:58:18Z</time>
      </trkpt>
      <trkpt lat="59.5277464" lon="17.8771895">
        <ele>23.209</ele>
        <time>2011-01-28T21:58:21Z</time>
      </trkpt>
      <trkpt lat="59.527795" lon="17.8771621">
        <ele>23.209</ele>
        <time>2011-01-28T21:58:22Z</time>
      </trkpt>
      <trkpt lat="59.5280677" lon="17.8768741">
        <ele>22.7283</ele>
        <time>2011-01-28T21:58:28Z</time>
      </trkpt>
      <trkpt lat="59.5282753" lon="17.8767363">
        <ele>24.1703</ele>
        <time>2011-01-28T21:58:32Z</time>
      </trkpt>
      <trkpt lat="59.5284364" lon="17.8766837">
        <ele>25.1317</ele>
        <time>2011-01-28T21:58:35Z</time>
      </trkpt>
      <trkpt lat="59.5286373" lon="17.8766243">
        <ele>24.651</ele>
        <time>2011-01-28T21:58:39Z</time>
      </trkpt>
      <trkpt lat="59.5287325" lon="17.876589">
        <ele>24.1703</ele>
        <time>2011-01-28T21:58:41Z</time>
      </trkpt>
      <trkpt lat="59.5290281" lon="17.8764845">
        <ele>23.209</ele>
        <time>2011-01-28T21:58:47Z</time>
      </trkpt>
      <trkpt lat="59.5292339" lon="17.8764099">
        <ele>23.6896</ele>
        <time>2011-01-28T21:58:51Z</time>
      </trkpt>
      <trkpt lat="59.5294442" lon="17.8763488">
        <ele>23.209</ele>
        <time>2011-01-28T21:58:56Z</time>
      </trkpt>
      <trkpt lat="59.5296601" lon="17.8763771">
        <ele>23.209</ele>
        <time>2011-01-28T21:59:01Z</time>
      </trkpt>
      <trkpt lat="59.5298333" lon="17.8764484">
        <ele>23.209</ele>
        <time>2011-01-28T21:59:05Z</time>
      </trkpt>
      <trkpt lat="59.5298762" lon="17.8764611">
        <ele>23.6896</ele>
        <time>2011-01-28T21:59:06Z</time>
      </trkpt>
      <trkpt lat="59.5301048" lon="17.8765228">
        <ele>22.7283</ele>
        <time>2011-01-28T21:59:11Z</time>
      </trkpt>
      <trkpt lat="59.5302009" lon="17.8765565">
        <ele>22.7283</ele>
        <time>2011-01-28T21:59:13Z</time>
      </trkpt>
      <trkpt lat="59.5304806" lon="17.8767205">
        <ele>22.2476</ele>
        <time>2011-01-28T21:59:19Z</time>
      </trkpt>
      <trkpt lat="59.5305217" lon="17.8767431">
        <ele>22.2476</ele>
        <time>2011-01-28T21:59:20Z</time>
      </trkpt>
      <trkpt lat="59.5307031" lon="17.8768311">
        <ele>22.2476</ele>
        <time>2011-01-28T21:59:25Z</time>
      </trkpt>
      <trkpt lat="59.5307771" lon="17.8768597">
        <ele>22.2476</ele>
        <time>2011-01-28T21:59:27Z</time>
      </trkpt>
      <trkpt lat="59.531016" lon="17.8768848">
        <ele>23.209</ele>
        <time>2011-01-28T21:59:33Z</time>
      </trkpt>
      <trkpt lat="59.5311304" lon="17.8768807">
        <ele>22.7283</ele>
        <time>2011-01-28T21:59:36Z</time>
      </trkpt>
      <trkpt lat="59.5312863" lon="17.8769263">
        <ele>22.2476</ele>
        <time>2011-01-28T21:59:40Z</time>
      </trkpt>
      <trkpt lat="59.5314729" lon="17.8769989">
        <ele>21.767</ele>
        <time>2011-01-28T21:59:45Z</time>
      </trkpt>
      <trkpt lat="59.5316713" lon="17.8769543">
        <ele>21.767</ele>
        <time>2011-01-28T21:59:50Z</time>
      </trkpt>
      <trkpt lat="59.5317876" lon="17.8770098">
        <ele>22.2476</ele>
        <time>2011-01-28T21:59:53Z</time>
      </trkpt>
      <trkpt lat="59.5318753" lon="17.877232">
        <ele>23.209</ele>
        <time>2011-01-28T21:59:57Z</time>
      </trkpt>
      <trkpt lat="59.5320095" lon="17.8773851">
        <ele>23.6896</ele>
        <time>2011-01-28T22:00:01Z</time>
      </trkpt>
      <trkpt lat="59.5322075" lon="17.8774162">
        <ele>24.1703</ele>
        <time>2011-01-28T22:00:06Z</time>
      </trkpt>
      <trkpt lat="59.5322478" lon="17.8774082">
        <ele>24.651</ele>
        <time>2011-01-28T22:00:07Z</time>
      </trkpt>
      <trkpt lat="59.5324042" lon="17.877376">
        <ele>24.1703</ele>
        <time>2011-01-28T22:00:11Z</time>
      </trkpt>
      <trkpt lat="59.532555" lon="17.8773382">
        <ele>23.6896</ele>
        <time>2011-01-28T22:00:15Z</time>
      </trkpt>
      <trkpt lat="59.5327439" lon="17.8772791">
        <ele>23.6896</ele>
        <time>2011-01-28T22:00:20Z</time>
      </trkpt>
      <trkpt lat="59.5329061" lon="17.8772707">
        <ele>23.209</ele>
        <time>2011-01-28T22:00:24Z</time>
      </trkpt>
      <trkpt lat="59.5330412" lon="17.877159">
        <ele>22.2476</ele>
        <time>2011-01-28T22:00:28Z</time>
      </trkpt>
      <trkpt lat="59.5331081" lon="17.8769419">
        <ele>22.2476</ele>
        <time>2011-01-28T22:00:31Z</time>
      </trkpt>
      <trkpt lat="59.5331095" lon="17.8765936">
        <ele>24.1703</ele>
        <time>2011-01-28T22:00:35Z</time>
      </trkpt>
      <trkpt lat="59.533109" lon="17.8763189">
        <ele>23.6896</ele>
        <time>2011-01-28T22:00:38Z</time>
      </trkpt>
      <trkpt lat="59.533234" lon="17.8761193">
        <ele>23.209</ele>
        <time>2011-01-28T22:00:42Z</time>
      </trkpt>
      <trkpt lat="59.5333131" lon="17.8761388">
        <ele>23.6896</ele>
        <time>2011-01-28T22:00:44Z</time>
      </trkpt>
      <trkpt lat="59.5335146" lon="17.876257">
        <ele>24.1703</ele>
        <time>2011-01-28T22:00:49Z</time>
      </trkpt>
      <trkpt lat="59.5336381" lon="17.8763078">
        <ele>23.6896</ele>
        <time>2011-01-28T22:00:52Z</time>
      </trkpt>
      <trkpt lat="59.5337195" lon="17.8763607">
        <ele>23.6896</ele>
        <time>2011-01-28T22:00:54Z</time>
      </trkpt>
      <trkpt lat="59.5337902" lon="17.8764333">
        <ele>23.209</ele>
        <time>2011-01-28T22:00:56Z</time>
      </trkpt>
      <trkpt lat="59.5338561" lon="17.8764967">
        <ele>22.7283</ele>
        <time>2011-01-28T22:00:58Z</time>
      </trkpt>
      <trkpt lat="59.5339272" lon="17.8765192">
        <ele>22.2476</ele>
        <time>2011-01-28T22:01:00Z</time>
      </trkpt>
      <trkpt lat="59.5340013" lon="17.8765125">
        <ele>21.2864</ele>
        <time>2011-01-28T22:01:02Z</time>
      </trkpt>
      <trkpt lat="59.5341405" lon="17.8764161">
        <ele>21.2864</ele>
        <time>2011-01-28T22:01:06Z</time>
      </trkpt>
      <trkpt lat="59.5342533" lon="17.8762419">
        <ele>19.8444</ele>
        <time>2011-01-28T22:01:10Z</time>
      </trkpt>
      <trkpt lat="59.5343667" lon="17.8759495">
        <ele>16.9604</ele>
        <time>2011-01-28T22:01:15Z</time>
      </trkpt>
      <trkpt lat="59.5344653" lon="17.8758505">
        <ele>16.9604</ele>
        <time>2011-01-28T22:01:18Z</time>
      </trkpt>
      <trkpt lat="59.5346375" lon="17.8759054">
        <ele>16.4797</ele>
        <time>2011-01-28T22:01:23Z</time>
      </trkpt>
      <trkpt lat="59.5347446" lon="17.8757168">
        <ele>15.5184</ele>
        <time>2011-01-28T22:01:27Z</time>
      </trkpt>
      <trkpt lat="59.5347672" lon="17.8753664">
        <ele>15.0377</ele>
        <time>2011-01-28T22:01:31Z</time>
      </trkpt>
      <trkpt lat="59.5346172" lon="17.8752454">
        <ele>15.999</ele>
        <time>2011-01-28T22:01:35Z</time>
      </trkpt>
      <trkpt lat="59.5343627" lon="17.8752202">
        <ele>16.4797</ele>
        <time>2011-01-28T22:01:40Z</time>
      </trkpt>
      <trkpt lat="59.5341453" lon="17.8751665">
        <ele>18.8831</ele>
        <time>2011-01-28T22:01:45Z</time>
      </trkpt>
      <trkpt lat="59.5341047" lon="17.8751447">
        <ele>19.3638</ele>
        <time>2011-01-28T22:01:46Z</time>
      </trkpt>
      <trkpt lat="59.5340251" lon="17.8751014">
        <ele>19.8444</ele>
        <time>2011-01-28T22:01:48Z</time>
      </trkpt>
      <trkpt lat="59.5339417" lon="17.8748569">
        <ele>18.4023</ele>
        <time>2011-01-28T22:01:52Z</time>
      </trkpt>
      <trkpt lat="59.5339468" lon="17.8747744">
        <ele>18.4023</ele>
        <time>2011-01-28T22:01:53Z</time>
      </trkpt>
      <trkpt lat="59.5339801" lon="17.8744145">
        <ele>18.4023</ele>
        <time>2011-01-28T22:01:58Z</time>
      </trkpt>
      <trkpt lat="59.5339655" lon="17.8741346">
        <ele>17.9218</ele>
        <time>2011-01-28T22:02:02Z</time>
      </trkpt>
      <trkpt lat="59.5339448" lon="17.8738948">
        <ele>17.9218</ele>
        <time>2011-01-28T22:02:06Z</time>
      </trkpt>
      <trkpt lat="59.5339148" lon="17.8736231">
        <ele>18.4023</ele>
        <time>2011-01-28T22:02:11Z</time>
      </trkpt>
      <trkpt lat="59.5338676" lon="17.8734009">
        <ele>20.8057</ele>
        <time>2011-01-28T22:02:15Z</time>
      </trkpt>
      <trkpt lat="59.5337693" lon="17.8732183">
        <ele>22.7283</ele>
        <time>2011-01-28T22:02:19Z</time>
      </trkpt>
      <trkpt lat="59.533737" lon="17.8731894">
        <ele>23.209</ele>
        <time>2011-01-28T22:02:20Z</time>
      </trkpt>
      <trkpt lat="59.5336256" lon="17.8729264">
        <ele>23.6896</ele>
        <time>2011-01-28T22:02:25Z</time>
      </trkpt>
      <trkpt lat="59.5335433" lon="17.8727041">
        <ele>24.1703</ele>
        <time>2011-01-28T22:02:29Z</time>
      </trkpt>
      <trkpt lat="59.5334225" lon="17.8724467">
        <ele>24.651</ele>
        <time>2011-01-28T22:02:33Z</time>
      </trkpt>
      <trkpt lat="59.5333195" lon="17.872225">
        <ele>23.6896</ele>
        <time>2011-01-28T22:02:37Z</time>
      </trkpt>
      <trkpt lat="59.5332236" lon="17.8719348">
        <ele>23.6896</ele>
        <time>2011-01-28T22:02:42Z</time>
      </trkpt>
      <trkpt lat="59.5331719" lon="17.8716421">
        <ele>23.209</ele>
        <time>2011-01-28T22:02:46Z</time>
      </trkpt>
      <trkpt lat="59.5331389" lon="17.871351">
        <ele>21.2864</ele>
        <time>2011-01-28T22:02:50Z</time>
      </trkpt>
      <trkpt lat="59.533121" lon="17.8710837">
        <ele>19.3638</ele>
        <time>2011-01-28T22:02:54Z</time>
      </trkpt>
      <trkpt lat="59.5331227" lon="17.8709453">
        <ele>19.3638</ele>
        <time>2011-01-28T22:02:56Z</time>
      </trkpt>
      <trkpt lat="59.5332159" lon="17.8706323">
        <ele>19.8444</ele>
        <time>2011-01-28T22:03:01Z</time>
      </trkpt>
      <trkpt lat="59.5332678" lon="17.8703532">
        <ele>19.8444</ele>
        <time>2011-01-28T22:03:05Z</time>
      </trkpt>
      <trkpt lat="59.533217" lon="17.8701135">
        <ele>20.8057</ele>
        <time>2011-01-28T22:03:09Z</time>
      </trkpt>
      <trkpt lat="59.5331052" lon="17.8698559">
        <ele>22.7283</ele>
        <time>2011-01-28T22:03:14Z</time>
      </trkpt>
      <trkpt lat="59.5329616" lon="17.86951">
        <ele>24.1703</ele>
        <time>2011-01-28T22:03:20Z</time>
      </trkpt>
      <trkpt lat="59.5328386" lon="17.869164">
        <ele>26.0929</ele>
        <time>2011-01-28T22:03:25Z</time>
      </trkpt>
      <trkpt lat="59.5328115" lon="17.8690982">
        <ele>26.0929</ele>
        <time>2011-01-28T22:03:26Z</time>
      </trkpt>
      <trkpt lat="59.5327751" lon="17.8689528">
        <ele>25.1317</ele>
        <time>2011-01-28T22:03:28Z</time>
      </trkpt>
      <trkpt lat="59.532656" lon="17.8686889">
        <ele>26.0929</ele>
        <time>2011-01-28T22:03:33Z</time>
      </trkpt>
      <trkpt lat="59.5325441" lon="17.8684269">
        <ele>28.0155</ele>
        <time>2011-01-28T22:03:37Z</time>
      </trkpt>
      <trkpt lat="59.5324741" lon="17.8682362">
        <ele>28.0155</ele>
        <time>2011-01-28T22:03:40Z</time>
      </trkpt>
      <trkpt lat="59.5324259" lon="17.8681309">
        <ele>28.0155</ele>
        <time>2011-01-28T22:03:42Z</time>
      </trkpt>
      <trkpt lat="59.5323472" lon="17.8679602">
        <ele>28.4962</ele>
        <time>2011-01-28T22:03:45Z</time>
      </trkpt>
      <trkpt lat="59.5322239" lon="17.867687">
        <ele>27.5349</ele>
        <time>2011-01-28T22:03:50Z</time>
      </trkpt>
      <trkpt lat="59.5321773" lon="17.8675486">
        <ele>26.5736</ele>
        <time>2011-01-28T22:03:52Z</time>
      </trkpt>
      <trkpt lat="59.5320749" lon="17.8672753">
        <ele>26.5736</ele>
        <time>2011-01-28T22:03:57Z</time>
      </trkpt>
      <trkpt lat="59.5319878" lon="17.8670157">
        <ele>24.651</ele>
        <time>2011-01-28T22:04:01Z</time>
      </trkpt>
      <trkpt lat="59.5319499" lon="17.8667992">
        <ele>24.651</ele>
        <time>2011-01-28T22:04:04Z</time>
      </trkpt>
      <trkpt lat="59.5319048" lon="17.8665056">
        <ele>25.1317</ele>
        <time>2011-01-28T22:04:08Z</time>
      </trkpt>
      <trkpt lat="59.531852" lon="17.8662132">
        <ele>25.1317</ele>
        <time>2011-01-28T22:04:12Z</time>
      </trkpt>
      <trkpt lat="59.531824" lon="17.8659607">
        <ele>25.1317</ele>
        <time>2011-01-28T22:04:16Z</time>
      </trkpt>
      <trkpt lat="59.5318076" lon="17.8656898">
        <ele>26.5736</ele>
        <time>2011-01-28T22:04:20Z</time>
      </trkpt>
      <trkpt lat="59.531771" lon="17.8653897">
        <ele>26.0929</ele>
        <time>2011-01-28T22:04:24Z</time>
      </trkpt>
      <trkpt lat="59.5317264" lon="17.8651225">
        <ele>25.6123</ele>
        <time>2011-01-28T22:04:28Z</time>
      </trkpt>
      <trkpt lat="59.5317214" lon="17.8648722">
        <ele>24.1703</ele>
        <time>2011-01-28T22:04:32Z</time>
      </trkpt>
      <trkpt lat="59.5318038" lon="17.8648405">
        <ele>24.1703</ele>
        <time>2011-01-28T22:04:36Z</time>
      </trkpt>
      <trkpt lat="59.5318668" lon="17.8650318">
        <ele>24.651</ele>
        <time>2011-01-28T22:04:40Z</time>
      </trkpt>
      <trkpt lat="59.5318961" lon="17.8653984">
        <ele>25.1317</ele>
        <time>2011-01-28T22:04:45Z</time>
      </trkpt>
      <trkpt lat="59.5319644" lon="17.865818">
        <ele>25.1317</ele>
        <time>2011-01-28T22:04:50Z</time>
      </trkpt>
      <trkpt lat="59.5319837" lon="17.8659139">
        <ele>25.1317</ele>
        <time>2011-01-28T22:04:51Z</time>
      </trkpt>
      <trkpt lat="59.5320674" lon="17.8663729">
        <ele>23.6896</ele>
        <time>2011-01-28T22:04:56Z</time>
      </trkpt>
      <trkpt lat="59.5320867" lon="17.866465">
        <ele>23.209</ele>
        <time>2011-01-28T22:04:57Z</time>
      </trkpt>
      <trkpt lat="59.5321232" lon="17.8666609">
        <ele>22.2476</ele>
        <time>2011-01-28T22:04:59Z</time>
      </trkpt>
      <trkpt lat="59.5321437" lon="17.8668428">
        <ele>21.767</ele>
        <time>2011-01-28T22:05:01Z</time>
      </trkpt>
      <trkpt lat="59.5321929" lon="17.8671106">
        <ele>22.2476</ele>
        <time>2011-01-28T22:05:04Z</time>
      </trkpt>
      <trkpt lat="59.5322632" lon="17.8673666">
        <ele>22.2476</ele>
        <time>2011-01-28T22:05:07Z</time>
      </trkpt>
      <trkpt lat="59.5324128" lon="17.8677852">
        <ele>23.6896</ele>
        <time>2011-01-28T22:05:12Z</time>
      </trkpt>
      <trkpt lat="59.5325169" lon="17.8680259">
        <ele>22.7283</ele>
        <time>2011-01-28T22:05:16Z</time>
      </trkpt>
      <trkpt lat="59.5326134" lon="17.8683128">
        <ele>22.7283</ele>
        <time>2011-01-28T22:05:20Z</time>
      </trkpt>
      <trkpt lat="59.5328101" lon="17.8687687">
        <ele>22.7283</ele>
        <time>2011-01-28T22:05:26Z</time>
      </trkpt>
      <trkpt lat="59.5328611" lon="17.8689066">
        <ele>22.2476</ele>
        <time>2011-01-28T22:05:28Z</time>
      </trkpt>
      <trkpt lat="59.5330174" lon="17.8692442">
        <ele>21.767</ele>
        <time>2011-01-28T22:05:33Z</time>
      </trkpt>
      <trkpt lat="59.5330465" lon="17.8693105">
        <ele>22.2476</ele>
        <time>2011-01-28T22:05:34Z</time>
      </trkpt>
      <trkpt lat="59.533123" lon="17.8695178">
        <ele>22.2476</ele>
        <time>2011-01-28T22:05:37Z</time>
      </trkpt>
      <trkpt lat="59.5332554" lon="17.8698497">
        <ele>22.2476</ele>
        <time>2011-01-28T22:05:42Z</time>
      </trkpt>
      <trkpt lat="59.533315" lon="17.8699717">
        <ele>23.209</ele>
        <time>2011-01-28T22:05:44Z</time>
      </trkpt>
      <trkpt lat="59.5334996" lon="17.8701145">
        <ele>23.6896</ele>
        <time>2011-01-28T22:05:49Z</time>
      </trkpt>
      <trkpt lat="59.533576" lon="17.8698789">
        <ele>25.1317</ele>
        <time>2011-01-28T22:05:53Z</time>
      </trkpt>
      <trkpt lat="59.5335584" lon="17.8696038">
        <ele>24.651</ele>
        <time>2011-01-28T22:05:57Z</time>
      </trkpt>
      <trkpt lat="59.5334822" lon="17.8693789">
        <ele>24.1703</ele>
        <time>2011-01-28T22:06:01Z</time>
      </trkpt>
      <trkpt lat="59.5334143" lon="17.8692122">
        <ele>24.651</ele>
        <time>2011-01-28T22:06:04Z</time>
      </trkpt>
      <trkpt lat="59.5333626" lon="17.8690754">
        <ele>24.651</ele>
        <time>2011-01-28T22:06:06Z</time>
      </trkpt>
      <trkpt lat="59.5332575" lon="17.8688005">
        <ele>24.1703</ele>
        <time>2011-01-28T22:06:10Z</time>
      </trkpt>
      <trkpt lat="59.5332315" lon="17.8687258">
        <ele>24.651</ele>
        <time>2011-01-28T22:06:11Z</time>
      </trkpt>
      <trkpt lat="59.5331458" lon="17.8685335">
        <ele>24.1703</ele>
        <time>2011-01-28T22:06:14Z</time>
      </trkpt>
      <trkpt lat="59.5330642" lon="17.8681482">
        <ele>24.1703</ele>
        <time>2011-01-28T22:06:19Z</time>
      </trkpt>
      <trkpt lat="59.5329952" lon="17.8678592">
        <ele>24.1703</ele>
        <time>2011-01-28T22:06:23Z</time>
      </trkpt>
      <trkpt lat="59.5329557" lon="17.8676989">
        <ele>24.651</ele>
        <time>2011-01-28T22:06:25Z</time>
      </trkpt>
      <trkpt lat="59.5329119" lon="17.8675569">
        <ele>25.1317</ele>
        <time>2011-01-28T22:06:27Z</time>
      </trkpt>
      <trkpt lat="59.5328527" lon="17.8673214">
        <ele>25.1317</ele>
        <time>2011-01-28T22:06:30Z</time>
      </trkpt>
      <trkpt lat="59.5328189" lon="17.8672076">
        <ele>25.6123</ele>
        <time>2011-01-28T22:06:32Z</time>
      </trkpt>
      <trkpt lat="59.5327269" lon="17.8669359">
        <ele>27.0543</ele>
        <time>2011-01-28T22:06:37Z</time>
      </trkpt>
      <trkpt lat="59.5326269" lon="17.8666329">
        <ele>28.0155</ele>
        <time>2011-01-28T22:06:42Z</time>
      </trkpt>
      <trkpt lat="59.5325247" lon="17.8662699">
        <ele>28.4962</ele>
        <time>2011-01-28T22:06:47Z</time>
      </trkpt>
      <trkpt lat="59.5324788" lon="17.8660227">
        <ele>28.4962</ele>
        <time>2011-01-28T22:06:51Z</time>
      </trkpt>
      <trkpt lat="59.532418" lon="17.8657337">
        <ele>28.0155</ele>
        <time>2011-01-28T22:06:56Z</time>
      </trkpt>
      <trkpt lat="59.5323646" lon="17.8654903">
        <ele>27.0543</ele>
        <time>2011-01-28T22:07:00Z</time>
      </trkpt>
      <trkpt lat="59.5323234" lon="17.865122">
        <ele>26.5736</ele>
        <time>2011-01-28T22:07:05Z</time>
      </trkpt>
      <trkpt lat="59.5323106" lon="17.8648478">
        <ele>25.6123</ele>
        <time>2011-01-28T22:07:09Z</time>
      </trkpt>
      <trkpt lat="59.5322809" lon="17.8645864">
        <ele>25.1317</ele>
        <time>2011-01-28T22:07:13Z</time>
      </trkpt>
      <trkpt lat="59.5322531" lon="17.8643271">
        <ele>24.651</ele>
        <time>2011-01-28T22:07:17Z</time>
      </trkpt>
      <trkpt lat="59.5322337" lon="17.8639852">
        <ele>24.651</ele>
        <time>2011-01-28T22:07:22Z</time>
      </trkpt>
      <trkpt lat="59.5321934" lon="17.8636876">
        <ele>24.651</ele>
        <time>2011-01-28T22:07:26Z</time>
      </trkpt>
      <trkpt lat="59.5321183" lon="17.8634539">
        <ele>25.6123</ele>
        <time>2011-01-28T22:07:30Z</time>
      </trkpt>
      <trkpt lat="59.5319742" lon="17.863432">
        <ele>24.651</ele>
        <time>2011-01-28T22:07:34Z</time>
      </trkpt>
      <trkpt lat="59.5318031" lon="17.8635405">
        <ele>23.6896</ele>
        <time>2011-01-28T22:07:38Z</time>
      </trkpt>
      <trkpt lat="59.5317187" lon="17.8636067">
        <ele>22.7283</ele>
        <time>2011-01-28T22:07:40Z</time>
      </trkpt>
      <trkpt lat="59.5315308" lon="17.8638729">
        <ele>19.8444</ele>
        <time>2011-01-28T22:07:45Z</time>
      </trkpt>
      <trkpt lat="59.5314933" lon="17.8639368">
        <ele>19.8444</ele>
        <time>2011-01-28T22:07:46Z</time>
      </trkpt>
      <trkpt lat="59.5312139" lon="17.8643756">
        <ele>21.2864</ele>
        <time>2011-01-28T22:07:53Z</time>
      </trkpt>
      <trkpt lat="59.5311107" lon="17.864552">
        <ele>20.8057</ele>
        <time>2011-01-28T22:07:56Z</time>
      </trkpt>
      <trkpt lat="59.5309593" lon="17.8649613">
        <ele>22.7283</ele>
        <time>2011-01-28T22:08:02Z</time>
      </trkpt>
      <trkpt lat="59.5309388" lon="17.8650296">
        <ele>22.2476</ele>
        <time>2011-01-28T22:08:03Z</time>
      </trkpt>
      <trkpt lat="59.5309388" lon="17.8653587">
        <ele>23.6896</ele>
        <time>2011-01-28T22:08:08Z</time>
      </trkpt>
      <trkpt lat="59.5310375" lon="17.8654381">
        <ele>24.1703</ele>
        <time>2011-01-28T22:08:11Z</time>
      </trkpt>
      <trkpt lat="59.5311165" lon="17.8654478">
        <ele>24.1703</ele>
        <time>2011-01-28T22:08:13Z</time>
      </trkpt>
      <trkpt lat="59.5312165" lon="17.8654203">
        <ele>24.651</ele>
        <time>2011-01-28T22:08:15Z</time>
      </trkpt>
      <trkpt lat="59.5313614" lon="17.8653722">
        <ele>23.6896</ele>
        <time>2011-01-28T22:08:18Z</time>
      </trkpt>
      <trkpt lat="59.5315449" lon="17.8654502">
        <ele>24.1703</ele>
        <time>2011-01-28T22:08:22Z</time>
      </trkpt>
      <trkpt lat="59.5315734" lon="17.8655234">
        <ele>24.1703</ele>
        <time>2011-01-28T22:08:23Z</time>
      </trkpt>
      <trkpt lat="59.5316223" lon="17.86573">
        <ele>24.1703</ele>
        <time>2011-01-28T22:08:26Z</time>
      </trkpt>
      <trkpt lat="59.5316717" lon="17.8659337">
        <ele>25.1317</ele>
        <time>2011-01-28T22:08:29Z</time>
      </trkpt>
      <trkpt lat="59.531722" lon="17.8663232">
        <ele>24.1703</ele>
        <time>2011-01-28T22:08:33Z</time>
      </trkpt>
      <trkpt lat="59.5317131" lon="17.8664275">
        <ele>23.6896</ele>
        <time>2011-01-28T22:08:34Z</time>
      </trkpt>
      <trkpt lat="59.5316548" lon="17.866593">
        <ele>23.209</ele>
        <time>2011-01-28T22:08:36Z</time>
      </trkpt>
      <trkpt lat="59.5315246" lon="17.8667744">
        <ele>24.1703</ele>
        <time>2011-01-28T22:08:40Z</time>
      </trkpt>
      <trkpt lat="59.5313894" lon="17.8670125">
        <ele>25.1317</ele>
        <time>2011-01-28T22:08:45Z</time>
      </trkpt>
      <trkpt lat="59.5313708" lon="17.8670836">
        <ele>25.1317</ele>
        <time>2011-01-28T22:08:46Z</time>
      </trkpt>
      <trkpt lat="59.5313566" lon="17.8672783">
        <ele>26.0929</ele>
        <time>2011-01-28T22:08:49Z</time>
      </trkpt>
      <trkpt lat="59.5314816" lon="17.8674747">
        <ele>27.5349</ele>
        <time>2011-01-28T22:08:53Z</time>
      </trkpt>
      <trkpt lat="59.5315633" lon="17.8675518">
        <ele>28.9769</ele>
        <time>2011-01-28T22:08:55Z</time>
      </trkpt>
      <trkpt lat="59.5316835" lon="17.867708">
        <ele>30.4188</ele>
        <time>2011-01-28T22:08:58Z</time>
      </trkpt>
      <trkpt lat="59.5317764" lon="17.8679009">
        <ele>31.3801</ele>
        <time>2011-01-28T22:09:01Z</time>
      </trkpt>
      <trkpt lat="59.5319194" lon="17.8682707">
        <ele>30.4188</ele>
        <time>2011-01-28T22:09:06Z</time>
      </trkpt>
      <trkpt lat="59.5319435" lon="17.8683462">
        <ele>30.4188</ele>
        <time>2011-01-28T22:09:07Z</time>
      </trkpt>
      <trkpt lat="59.5320173" lon="17.8685803">
        <ele>29.9381</ele>
        <time>2011-01-28T22:09:10Z</time>
      </trkpt>
      <trkpt lat="59.5320944" lon="17.8689061">
        <ele>30.8995</ele>
        <time>2011-01-28T22:09:14Z</time>
      </trkpt>
      <trkpt lat="59.5322037" lon="17.8692039">
        <ele>32.3416</ele>
        <time>2011-01-28T22:09:18Z</time>
      </trkpt>
      <trkpt lat="59.5323259" lon="17.8694819">
        <ele>30.8995</ele>
        <time>2011-01-28T22:09:22Z</time>
      </trkpt>
      <trkpt lat="59.532398" lon="17.869595">
        <ele>30.4188</ele>
        <time>2011-01-28T22:09:24Z</time>
      </trkpt>
      <trkpt lat="59.53247" lon="17.8697271">
        <ele>30.4188</ele>
        <time>2011-01-28T22:09:26Z</time>
      </trkpt>
      <trkpt lat="59.5325548" lon="17.8699554">
        <ele>31.3801</ele>
        <time>2011-01-28T22:09:29Z</time>
      </trkpt>
      <trkpt lat="59.5326591" lon="17.8703445">
        <ele>31.3801</ele>
        <time>2011-01-28T22:09:34Z</time>
      </trkpt>
      <trkpt lat="59.5328031" lon="17.8707532">
        <ele>30.8995</ele>
        <time>2011-01-28T22:09:40Z</time>
      </trkpt>
      <trkpt lat="59.5328606" lon="17.8710069">
        <ele>29.4575</ele>
        <time>2011-01-28T22:09:43Z</time>
      </trkpt>
      <trkpt lat="59.5328963" lon="17.8712862">
        <ele>28.9769</ele>
        <time>2011-01-28T22:09:46Z</time>
      </trkpt>
      <trkpt lat="59.5328906" lon="17.8715266">
        <ele>29.4575</ele>
        <time>2011-01-28T22:09:49Z</time>
      </trkpt>
      <trkpt lat="59.5328885" lon="17.8716827">
        <ele>29.4575</ele>
        <time>2011-01-28T22:09:51Z</time>
      </trkpt>
      <trkpt lat="59.5328964" lon="17.8720478">
        <ele>28.9769</ele>
        <time>2011-01-28T22:09:56Z</time>
      </trkpt>
      <trkpt lat="59.5329156" lon="17.8723837">
        <ele>31.3801</ele>
        <time>2011-01-28T22:10:01Z</time>
      </trkpt>
      <trkpt lat="59.5329647" lon="17.872703">
        <ele>29.9381</ele>
        <time>2011-01-28T22:10:05Z</time>
      </trkpt>
      <trkpt lat="59.533092" lon="17.8728342">
        <ele>28.4962</ele>
        <time>2011-01-28T22:10:09Z</time>
      </trkpt>
      <trkpt lat="59.5331416" lon="17.8728305">
        <ele>28.0155</ele>
        <time>2011-01-28T22:10:10Z</time>
      </trkpt>
      <trkpt lat="59.5333739" lon="17.8730217">
        <ele>26.0929</ele>
        <time>2011-01-28T22:10:15Z</time>
      </trkpt>
      <trkpt lat="59.5334413" lon="17.8731639">
        <ele>25.6123</ele>
        <time>2011-01-28T22:10:17Z</time>
      </trkpt>
      <trkpt lat="59.5336315" lon="17.8734553">
        <ele>24.1703</ele>
        <time>2011-01-28T22:10:22Z</time>
      </trkpt>
      <trkpt lat="59.5338215" lon="17.873683">
        <ele>22.2476</ele>
        <time>2011-01-28T22:10:26Z</time>
      </trkpt>
      <trkpt lat="59.5339257" lon="17.8739888">
        <ele>20.8057</ele>
        <time>2011-01-28T22:10:29Z</time>
      </trkpt>
      <trkpt lat="59.5338561" lon="17.8742804">
        <ele>19.8444</ele>
        <time>2011-01-28T22:10:32Z</time>
      </trkpt>
      <trkpt lat="59.5336975" lon="17.8744674">
        <ele>20.325</ele>
        <time>2011-01-28T22:10:35Z</time>
      </trkpt>
      <trkpt lat="59.5334723" lon="17.8747274">
        <ele>19.3638</ele>
        <time>2011-01-28T22:10:40Z</time>
      </trkpt>
      <trkpt lat="59.5333608" lon="17.8748884">
        <ele>20.325</ele>
        <time>2011-01-28T22:10:43Z</time>
      </trkpt>
      <trkpt lat="59.5332046" lon="17.8750149">
        <ele>19.8444</ele>
        <time>2011-01-28T22:10:47Z</time>
      </trkpt>
      <trkpt lat="59.5329911" lon="17.8751475">
        <ele>20.325</ele>
        <time>2011-01-28T22:10:52Z</time>
      </trkpt>
      <trkpt lat="59.5327176" lon="17.8752854">
        <ele>20.325</ele>
        <time>2011-01-28T22:10:58Z</time>
      </trkpt>
      <trkpt lat="59.5326766" lon="17.8753007">
        <ele>19.8444</ele>
        <time>2011-01-28T22:10:59Z</time>
      </trkpt>
      <trkpt lat="59.5324828" lon="17.8753835">
        <ele>18.8831</ele>
        <time>2011-01-28T22:11:04Z</time>
      </trkpt>
      <trkpt lat="59.5323203" lon="17.8754485">
        <ele>17.9218</ele>
        <time>2011-01-28T22:11:08Z</time>
      </trkpt>
      <trkpt lat="59.5322368" lon="17.8754935">
        <ele>17.9218</ele>
        <time>2011-01-28T22:11:10Z</time>
      </trkpt>
      <trkpt lat="59.5321184" lon="17.8755452">
        <ele>17.9218</ele>
        <time>2011-01-28T22:11:13Z</time>
      </trkpt>
      <trkpt lat="59.5319727" lon="17.8756522">
        <ele>18.4023</ele>
        <time>2011-01-28T22:11:17Z</time>
      </trkpt>
      <trkpt lat="59.5317722" lon="17.875797">
        <ele>18.4023</ele>
        <time>2011-01-28T22:11:22Z</time>
      </trkpt>
      <trkpt lat="59.5315692" lon="17.8757601">
        <ele>20.8057</ele>
        <time>2011-01-28T22:11:27Z</time>
      </trkpt>
      <trkpt lat="59.5314045" lon="17.8756753">
        <ele>20.8057</ele>
        <time>2011-01-28T22:11:31Z</time>
      </trkpt>
      <trkpt lat="59.5311619" lon="17.875539">
        <ele>21.767</ele>
        <time>2011-01-28T22:11:37Z</time>
      </trkpt>
      <trkpt lat="59.5310137" lon="17.8754697">
        <ele>21.767</ele>
        <time>2011-01-28T22:11:41Z</time>
      </trkpt>
      <trkpt lat="59.5309377" lon="17.8754401">
        <ele>21.767</ele>
        <time>2011-01-28T22:11:43Z</time>
      </trkpt>
      <trkpt lat="59.5307234" lon="17.8752672">
        <ele>21.767</ele>
        <time>2011-01-28T22:11:49Z</time>
      </trkpt>
      <trkpt lat="59.5306134" lon="17.8753093">
        <ele>21.2864</ele>
        <time>2011-01-28T22:11:53Z</time>
      </trkpt>
      <trkpt lat="59.5304409" lon="17.875481">
        <ele>21.2864</ele>
        <time>2011-01-28T22:11:58Z</time>
      </trkpt>
      <trkpt lat="59.5304021" lon="17.8755039">
        <ele>21.767</ele>
        <time>2011-01-28T22:11:59Z</time>
      </trkpt>
      <trkpt lat="59.5302346" lon="17.8755519">
        <ele>21.2864</ele>
        <time>2011-01-28T22:12:03Z</time>
      </trkpt>
      <trkpt lat="59.5300991" lon="17.8755511">
        <ele>20.8057</ele>
        <time>2011-01-28T22:12:06Z</time>
      </trkpt>
      <trkpt lat="59.5299809" lon="17.8754878">
        <ele>21.767</ele>
        <time>2011-01-28T22:12:09Z</time>
      </trkpt>
      <trkpt lat="59.5298347" lon="17.8753283">
        <ele>23.209</ele>
        <time>2011-01-28T22:12:14Z</time>
      </trkpt>
      <trkpt lat="59.5296831" lon="17.8752694">
        <ele>24.651</ele>
        <time>2011-01-28T22:12:18Z</time>
      </trkpt>
      <trkpt lat="59.5295629" lon="17.8752049">
        <ele>26.5736</ele>
        <time>2011-01-28T22:12:21Z</time>
      </trkpt>
      <trkpt lat="59.5295133" lon="17.8749057">
        <ele>25.1317</ele>
        <time>2011-01-28T22:12:26Z</time>
      </trkpt>
      <trkpt lat="59.5294359" lon="17.8747223">
        <ele>25.6123</ele>
        <time>2011-01-28T22:12:30Z</time>
      </trkpt>
      <trkpt lat="59.5292822" lon="17.8746702">
        <ele>25.1317</ele>
        <time>2011-01-28T22:12:34Z</time>
      </trkpt>
      <trkpt lat="59.5290971" lon="17.8748196">
        <ele>23.209</ele>
        <time>2011-01-28T22:12:38Z</time>
      </trkpt>
      <trkpt lat="59.5288984" lon="17.8750245">
        <ele>23.209</ele>
        <time>2011-01-28T22:12:42Z</time>
      </trkpt>
      <trkpt lat="59.5286755" lon="17.875326">
        <ele>22.7283</ele>
        <time>2011-01-28T22:12:47Z</time>
      </trkpt>
      <trkpt lat="59.5286383" lon="17.8753867">
        <ele>22.7283</ele>
        <time>2011-01-28T22:12:48Z</time>
      </trkpt>
      <trkpt lat="59.5284992" lon="17.8756527">
        <ele>24.1703</ele>
        <time>2011-01-28T22:12:52Z</time>
      </trkpt>
      <trkpt lat="59.5283488" lon="17.8757553">
        <ele>25.1317</ele>
        <time>2011-01-28T22:12:56Z</time>
      </trkpt>
      <trkpt lat="59.5282623" lon="17.8756693">
        <ele>25.1317</ele>
        <time>2011-01-28T22:12:59Z</time>
      </trkpt>
      <trkpt lat="59.5281255" lon="17.8753957">
        <ele>26.5736</ele>
        <time>2011-01-28T22:13:04Z</time>
      </trkpt>
      <trkpt lat="59.5279932" lon="17.8751256">
        <ele>28.4962</ele>
        <time>2011-01-28T22:13:09Z</time>
      </trkpt>
      <trkpt lat="59.5279312" lon="17.8750308">
        <ele>28.9769</ele>
        <time>2011-01-28T22:13:11Z</time>
      </trkpt>
      <trkpt lat="59.5277546" lon="17.8750091">
        <ele>28.4962</ele>
        <time>2011-01-28T22:13:16Z</time>
      </trkpt>
      <trkpt lat="59.5277261" lon="17.8750611">
        <ele>28.0155</ele>
        <time>2011-01-28T22:13:17Z</time>
      </trkpt>
      <trkpt lat="59.5275785" lon="17.875391">
        <ele>25.1317</ele>
        <time>2011-01-28T22:13:22Z</time>
      </trkpt>
      <trkpt lat="59.5274369" lon="17.8755121">
        <ele>25.1317</ele>
        <time>2011-01-28T22:13:26Z</time>
      </trkpt>
      <trkpt lat="59.5273526" lon="17.8755184">
        <ele>25.1317</ele>
        <time>2011-01-28T22:13:28Z</time>
      </trkpt>
      <trkpt lat="59.5271117" lon="17.8754266">
        <ele>24.651</ele>
        <time>2011-01-28T22:13:33Z</time>
      </trkpt>
      <trkpt lat="59.5270235" lon="17.8753853">
        <ele>24.651</ele>
        <time>2011-01-28T22:13:35Z</time>
      </trkpt>
      <trkpt lat="59.5268941" lon="17.8751748">
        <ele>26.0929</ele>
        <time>2011-01-28T22:13:40Z</time>
      </trkpt>
      <trkpt lat="59.5269064" lon="17.8748075">
        <ele>25.6123</ele>
        <time>2011-01-28T22:13:45Z</time>
      </trkpt>
      <trkpt lat="59.5269279" lon="17.8743908">
        <ele>26.0929</ele>
        <time>2011-01-28T22:13:50Z</time>
      </trkpt>
      <trkpt lat="59.5269105" lon="17.8743357">
        <ele>26.5736</ele>
        <time>2011-01-28T22:13:51Z</time>
      </trkpt>
      <trkpt lat="59.5267326" lon="17.8743643">
        <ele>24.1703</ele>
        <time>2011-01-28T22:13:56Z</time>
      </trkpt>
      <trkpt lat="59.5266977" lon="17.8744244">
        <ele>23.209</ele>
        <time>2011-01-28T22:13:57Z</time>
      </trkpt>
      <trkpt lat="59.5265676" lon="17.8746617">
        <ele>22.2476</ele>
        <time>2011-01-28T22:14:01Z</time>
      </trkpt>
      <trkpt lat="59.526437" lon="17.8749199">
        <ele>22.2476</ele>
        <time>2011-01-28T22:14:05Z</time>
      </trkpt>
      <trkpt lat="59.5262667" lon="17.8751947">
        <ele>21.2864</ele>
        <time>2011-01-28T22:14:10Z</time>
      </trkpt>
      <trkpt lat="59.526197" lon="17.8753027">
        <ele>21.767</ele>
        <time>2011-01-28T22:14:12Z</time>
      </trkpt>
      <trkpt lat="59.5261133" lon="17.8753801">
        <ele>22.2476</ele>
        <time>2011-01-28T22:14:14Z</time>
      </trkpt>
      <trkpt lat="59.525941" lon="17.8753551">
        <ele>22.2476</ele>
        <time>2011-01-28T22:14:19Z</time>
      </trkpt>
      <trkpt lat="59.5258869" lon="17.8751501">
        <ele>22.2476</ele>
        <time>2011-01-28T22:14:22Z</time>
      </trkpt>
      <trkpt lat="59.5258876" lon="17.8749947">
        <ele>22.7283</ele>
        <time>2011-01-28T22:14:24Z</time>
      </trkpt>
      <trkpt lat="59.5259295" lon="17.8746664">
        <ele>22.7283</ele>
        <time>2011-01-28T22:14:28Z</time>
      </trkpt>
      <trkpt lat="59.5259394" lon="17.8745911">
        <ele>22.2476</ele>
        <time>2011-01-28T22:14:29Z</time>
      </trkpt>
      <trkpt lat="59.5259486" lon="17.8742672">
        <ele>23.209</ele>
        <time>2011-01-28T22:14:33Z</time>
      </trkpt>
      <trkpt lat="59.5258348" lon="17.8739704">
        <ele>27.0543</ele>
        <time>2011-01-28T22:14:38Z</time>
      </trkpt>
      <trkpt lat="59.5257621" lon="17.8738989">
        <ele>26.5736</ele>
        <time>2011-01-28T22:14:40Z</time>
      </trkpt>
      <trkpt lat="59.5255586" lon="17.8738492">
        <ele>26.0929</ele>
        <time>2011-01-28T22:14:45Z</time>
      </trkpt>
      <trkpt lat="59.5255111" lon="17.8738428">
        <ele>26.0929</ele>
        <time>2011-01-28T22:14:46Z</time>
      </trkpt>
      <trkpt lat="59.5253816" lon="17.8738787">
        <ele>26.0929</ele>
        <time>2011-01-28T22:14:49Z</time>
      </trkpt>
      <trkpt lat="59.5252666" lon="17.8740517">
        <ele>26.0929</ele>
        <time>2011-01-28T22:14:53Z</time>
      </trkpt>
      <trkpt lat="59.5252593" lon="17.874246">
        <ele>26.0929</ele>
        <time>2011-01-28T22:14:56Z</time>
      </trkpt>
      <trkpt lat="59.5253396" lon="17.8744141">
        <ele>28.0155</ele>
        <time>2011-01-28T22:14:59Z</time>
      </trkpt>
      <trkpt lat="59.5253824" lon="17.8744636">
        <ele>28.9769</ele>
        <time>2011-01-28T22:15:00Z</time>
      </trkpt>
      <trkpt lat="59.5254717" lon="17.8745703">
        <ele>28.4962</ele>
        <time>2011-01-28T22:15:02Z</time>
      </trkpt>
      <trkpt lat="59.5256692" lon="17.8748963">
        <ele>27.5349</ele>
        <time>2011-01-28T22:15:07Z</time>
      </trkpt>
      <trkpt lat="59.5256896" lon="17.8749868">
        <ele>27.5349</ele>
        <time>2011-01-28T22:15:08Z</time>
      </trkpt>
      <trkpt lat="59.5256291" lon="17.8754122">
        <ele>25.1317</ele>
        <time>2011-01-28T22:15:13Z</time>
      </trkpt>
      <trkpt lat="59.5255117" lon="17.8756205">
        <ele>23.6896</ele>
        <time>2011-01-28T22:15:17Z</time>
      </trkpt>
      <trkpt lat="59.5254214" lon="17.875679">
        <ele>22.2476</ele>
        <time>2011-01-28T22:15:20Z</time>
      </trkpt>
      <trkpt lat="59.5252634" lon="17.8758198">
        <ele>20.325</ele>
        <time>2011-01-28T22:15:25Z</time>
      </trkpt>
      <trkpt lat="59.5251692" lon="17.8760167">
        <ele>19.3638</ele>
        <time>2011-01-28T22:15:29Z</time>
      </trkpt>
      <trkpt lat="59.5250434" lon="17.8761986">
        <ele>19.3638</ele>
        <time>2011-01-28T22:15:33Z</time>
      </trkpt>
      <trkpt lat="59.5249548" lon="17.876351">
        <ele>21.2864</ele>
        <time>2011-01-28T22:15:36Z</time>
      </trkpt>
      <trkpt lat="59.5249241" lon="17.8763866">
        <ele>21.2864</ele>
        <time>2011-01-28T22:15:37Z</time>
      </trkpt>
    </trkseg>
  </trk>
</gpx>